<?xml version='1.0' encoding='UTF-8'?><gpx version="1.1" creator="JPX - https://github.com/jenetics/jpx" xmlns="http://www.topografix.com/GPX/1/1"><trk><trkseg><trkpt lat="49.02415119479521" lon="1.7848017175470798"><ele>187.0</ele><time>2026-03-22T13:13:01.999Z</time></trkpt><trkpt lat="49.024209414416404" lon="1.7847561136767855"><ele>187.0</ele><time>2026-03-22T13:13:02.999Z</time></trkpt><trkpt lat="49.02428368853991" lon="1.7847334868233302"><ele>187.0</ele><time>2026-03-22T13:13:03.999Z</time></trkpt><trkpt lat="49.02438482856474" lon="1.7846971305428307"><ele>187.0</ele><time>2026-03-22T13:13:05.999Z</time></trkpt><trkpt lat="49.0244559107387" lon="1.7847230837525618"><ele>187.0</ele><time>2026-03-22T13:13:06.999Z</time></trkpt><trkpt lat="49.02454629344747" lon="1.7847257678174324"><ele>187.0</ele><time>2026-03-22T13:13:07.999Z</time></trkpt><trkpt lat="49.02467466224311" lon="1.7846755338835656"><ele>187.0</ele><time>2026-03-22T13:13:09.999Z</time></trkpt><trkpt lat="49.02475729676498" lon="1.7846395264109804"><ele>187.0</ele><time>2026-03-22T13:13:10.999Z</time></trkpt><trkpt lat="49.02484868336305" lon="1.784602243906975"><ele>187.0</ele><time>2026-03-22T13:13:11.999Z</time></trkpt><trkpt lat="49.02494744973121" lon="1.7845331422472224"><ele>187.0</ele><time>2026-03-22T13:13:12.999Z</time></trkpt><trkpt lat="49.02502727407922" lon="1.7844764935432564"><ele>187.0</ele><time>2026-03-22T13:13:13.999Z</time></trkpt><trkpt lat="49.02511571051383" lon="1.7844568118111737"><ele>187.6</ele><time>2026-03-22T13:13:14.999Z</time></trkpt><trkpt lat="49.025188862815696" lon="1.7844234149240479"><ele>188.2</ele><time>2026-03-22T13:13:15.999Z</time></trkpt><trkpt lat="49.02531971514476" lon="1.78445036801149"><ele>188.8</ele><time>2026-03-22T13:13:17.999Z</time></trkpt><trkpt lat="49.02541466424718" lon="1.784437052763839"><ele>189.4</ele><time>2026-03-22T13:13:19.999Z</time></trkpt><trkpt lat="49.02547793727413" lon="1.7844577970016127"><ele>190.0</ele><time>2026-03-22T13:13:27.999Z</time></trkpt><trkpt lat="49.025575945495405" lon="1.7844551945281801"><ele>190.0</ele><time>2026-03-22T13:13:31.999Z</time></trkpt><trkpt lat="49.02566400649511" lon="1.7844610031294539"><ele>190.0</ele><time>2026-03-22T13:13:33.999Z</time></trkpt><trkpt lat="49.02575882741206" lon="1.784524778876858"><ele>190.0</ele><time>2026-03-22T13:13:34.999Z</time></trkpt><trkpt lat="49.025848454422686" lon="1.7845778317441217"><ele>190.0</ele><time>2026-03-22T13:13:35.999Z</time></trkpt><trkpt lat="49.025932261677106" lon="1.784592699465055"><ele>190.0</ele><time>2026-03-22T13:13:36.999Z</time></trkpt><trkpt lat="49.026034477411976" lon="1.7846210885282163"><ele>189.6</ele><time>2026-03-22T13:13:37.999Z</time></trkpt><trkpt lat="49.02612668919728" lon="1.7846698583408227"><ele>189.2</ele><time>2026-03-22T13:13:38.999Z</time></trkpt><trkpt lat="49.0262097139664" lon="1.7847289044446033"><ele>188.8</ele><time>2026-03-22T13:13:39.999Z</time></trkpt><trkpt lat="49.02629085675826" lon="1.7848135071323146"><ele>188.4</ele><time>2026-03-22T13:13:40.999Z</time></trkpt><trkpt lat="49.02636059117999" lon="1.7849006946893573"><ele>188.0</ele><time>2026-03-22T13:13:41.999Z</time></trkpt><trkpt lat="49.0264522061547" lon="1.784959394235968"><ele>188.0</ele><time>2026-03-22T13:13:42.999Z</time></trkpt><trkpt lat="49.026525750324026" lon="1.785023444578531"><ele>188.0</ele><time>2026-03-22T13:13:43.999Z</time></trkpt><trkpt lat="49.02658953778478" lon="1.7851177714053226"><ele>188.0</ele><time>2026-03-22T13:13:44.999Z</time></trkpt><trkpt lat="49.02665450005412" lon="1.7852395342132172"><ele>188.0</ele><time>2026-03-22T13:13:45.999Z</time></trkpt><trkpt lat="49.026705335747394" lon="1.7853508378910137"><ele>188.0</ele><time>2026-03-22T13:13:46.999Z</time></trkpt><trkpt lat="49.02674764174603" lon="1.7854512299691125"><ele>188.0</ele><time>2026-03-22T13:13:47.999Z</time></trkpt><trkpt lat="49.02678534352872" lon="1.7855416053251116"><ele>189.5</ele><time>2026-03-22T13:13:48.999Z</time></trkpt><trkpt lat="49.026871110571626" lon="1.785580045854452"><ele>191.0</ele><time>2026-03-22T13:13:50.999Z</time></trkpt><trkpt lat="49.02696630978099" lon="1.7855219144161818"><ele>192.5</ele><time>2026-03-22T13:13:51.999Z</time></trkpt><trkpt lat="49.02708355412888" lon="1.785430937434871"><ele>194.0</ele><time>2026-03-22T13:13:52.999Z</time></trkpt><trkpt lat="49.02721627517502" lon="1.7853447899378618"><ele>194.0</ele><time>2026-03-22T13:13:53.999Z</time></trkpt><trkpt lat="49.02734629995875" lon="1.7852603925361885"><ele>194.0</ele><time>2026-03-22T13:13:54.999Z</time></trkpt><trkpt lat="49.027461058156476" lon="1.7852137123639236"><ele>194.0</ele><time>2026-03-22T13:13:55.999Z</time></trkpt><trkpt lat="49.02759739623561" lon="1.7851734532293828"><ele>194.0</ele><time>2026-03-22T13:13:56.999Z</time></trkpt><trkpt lat="49.027739460083936" lon="1.7850976138893278"><ele>193.5</ele><time>2026-03-22T13:13:57.999Z</time></trkpt><trkpt lat="49.02787662938557" lon="1.7850016452723538"><ele>193.0</ele><time>2026-03-22T13:13:58.999Z</time></trkpt><trkpt lat="49.0279918437784" lon="1.7849366236507567"><ele>192.5</ele><time>2026-03-22T13:13:59.999Z</time></trkpt><trkpt lat="49.02810825092221" lon="1.7849083737181"><ele>192.0</ele><time>2026-03-22T13:14:00.999Z</time></trkpt><trkpt lat="49.028225234695086" lon="1.7848544175693841"><ele>192.25</ele><time>2026-03-22T13:14:01.999Z</time></trkpt><trkpt lat="49.0283737742585" lon="1.7848046888261815"><ele>192.5</ele><time>2026-03-22T13:14:02.999Z</time></trkpt><trkpt lat="49.028513014345684" lon="1.7847588573714062"><ele>192.75</ele><time>2026-03-22T13:14:03.999Z</time></trkpt><trkpt lat="49.02862620941313" lon="1.7847214358131156"><ele>193.0</ele><time>2026-03-22T13:14:04.999Z</time></trkpt><trkpt lat="49.02872278994487" lon="1.7847162121951676"><ele>193.0</ele><time>2026-03-22T13:14:05.999Z</time></trkpt><trkpt lat="49.02880752504896" lon="1.7847155794788516"><ele>193.0</ele><time>2026-03-22T13:14:06.999Z</time></trkpt><trkpt lat="49.02887663702412" lon="1.7847299836373927"><ele>193.0</ele><time>2026-03-22T13:14:07.999Z</time></trkpt><trkpt lat="49.02900959872454" lon="1.7848292448397431"><ele>193.0</ele><time>2026-03-22T13:14:09.999Z</time></trkpt><trkpt lat="49.02910556349643" lon="1.7848963743489186"><ele>193.0</ele><time>2026-03-22T13:14:10.999Z</time></trkpt><trkpt lat="49.02920295628652" lon="1.7849539226729223"><ele>191.8</ele><time>2026-03-22T13:14:11.999Z</time></trkpt><trkpt lat="49.0292853602544" lon="1.7850076048563939"><ele>190.60000000000002</ele><time>2026-03-22T13:14:12.999Z</time></trkpt><trkpt lat="49.02936192977824" lon="1.7850481443678639"><ele>189.39999999999998</ele><time>2026-03-22T13:14:13.999Z</time></trkpt><trkpt lat="49.02942670897924" lon="1.7850681020440304"><ele>188.2</ele><time>2026-03-22T13:14:14.999Z</time></trkpt><trkpt lat="49.02955238870397" lon="1.7850746653661285"><ele>187.0</ele><time>2026-03-22T13:14:16.999Z</time></trkpt><trkpt lat="49.029653660365575" lon="1.7850636136283977"><ele>187.0</ele><time>2026-03-22T13:14:17.999Z</time></trkpt><trkpt lat="49.02975344426894" lon="1.7850822500424866"><ele>187.0</ele><time>2026-03-22T13:14:18.999Z</time></trkpt><trkpt lat="49.029861678035374" lon="1.785100605467407"><ele>187.0</ele><time>2026-03-22T13:14:19.999Z</time></trkpt><trkpt lat="49.029993669813955" lon="1.7851489265048854"><ele>187.0</ele><time>2026-03-22T13:14:20.999Z</time></trkpt><trkpt lat="49.03014679582454" lon="1.7851978316389725"><ele>183.0</ele><time>2026-03-22T13:14:21.999Z</time></trkpt><trkpt lat="49.03030529496078" lon="1.7852408107226965"><ele>179.0</ele><time>2026-03-22T13:14:22.999Z</time></trkpt><trkpt lat="49.03044649116743" lon="1.7852773115800533"><ele>175.0</ele><time>2026-03-22T13:14:23.999Z</time></trkpt><trkpt lat="49.030600215298485" lon="1.7853086805468972"><ele>175.0</ele><time>2026-03-22T13:14:24.999Z</time></trkpt><trkpt lat="49.03074768841701" lon="1.7853670040500245"><ele>175.0</ele><time>2026-03-22T13:14:25.999Z</time></trkpt><trkpt lat="49.030879163382465" lon="1.7853994817430257"><ele>175.0</ele><time>2026-03-22T13:14:26.999Z</time></trkpt><trkpt lat="49.030995897199375" lon="1.7854136670389682"><ele>175.0</ele><time>2026-03-22T13:14:27.999Z</time></trkpt><trkpt lat="49.03109324554276" lon="1.785414227563074"><ele>174.6</ele><time>2026-03-22T13:14:28.999Z</time></trkpt><trkpt lat="49.0311802226512" lon="1.7854269849683164"><ele>174.2</ele><time>2026-03-22T13:14:30.999Z</time></trkpt><trkpt lat="49.03120537649091" lon="1.7855496534148894"><ele>173.8</ele><time>2026-03-22T13:14:32.999Z</time></trkpt><trkpt lat="49.03124495093739" lon="1.7856463469353776"><ele>173.4</ele><time>2026-03-22T13:14:33.999Z</time></trkpt><trkpt lat="49.03130682597382" lon="1.7858076473222744"><ele>173.0</ele><time>2026-03-22T13:14:34.999Z</time></trkpt><trkpt lat="49.031359349000375" lon="1.7859651336164004"><ele>172.5</ele><time>2026-03-22T13:14:35.999Z</time></trkpt><trkpt lat="49.03141570694446" lon="1.7861463032732119"><ele>172.0</ele><time>2026-03-22T13:14:36.999Z</time></trkpt><trkpt lat="49.03150498192511" lon="1.7863168522164732"><ele>171.5</ele><time>2026-03-22T13:14:37.999Z</time></trkpt><trkpt lat="49.03158879085789" lon="1.7865095237949704"><ele>171.0</ele><time>2026-03-22T13:14:38.999Z</time></trkpt><trkpt lat="49.03166568866553" lon="1.7867154573973354"><ele>169.0</ele><time>2026-03-22T13:14:39.999Z</time></trkpt><trkpt lat="49.031748772374925" lon="1.786937956729825"><ele>167.0</ele><time>2026-03-22T13:14:40.999Z</time></trkpt><trkpt lat="49.03182363575854" lon="1.787138442252438"><ele>165.0</ele><time>2026-03-22T13:14:41.999Z</time></trkpt><trkpt lat="49.03189537704645" lon="1.7873311080620728"><ele>165.0</ele><time>2026-03-22T13:14:42.999Z</time></trkpt><trkpt lat="49.03196986787439" lon="1.7875205321180332"><ele>165.0</ele><time>2026-03-22T13:14:43.999Z</time></trkpt><trkpt lat="49.032021664511916" lon="1.7877076619623855"><ele>165.0</ele><time>2026-03-22T13:14:44.999Z</time></trkpt><trkpt lat="49.03210797293106" lon="1.787881666448281"><ele>165.0</ele><time>2026-03-22T13:14:45.999Z</time></trkpt><trkpt lat="49.03218567031333" lon="1.7880661681378782"><ele>164.25</ele><time>2026-03-22T13:14:46.999Z</time></trkpt><trkpt lat="49.03226422981964" lon="1.7882644871682398"><ele>163.5</ele><time>2026-03-22T13:14:47.999Z</time></trkpt><trkpt lat="49.03232504020991" lon="1.7884224716820978"><ele>162.75</ele><time>2026-03-22T13:14:48.999Z</time></trkpt><trkpt lat="49.03237282256764" lon="1.7885359649150154"><ele>162.0</ele><time>2026-03-22T13:14:49.999Z</time></trkpt><trkpt lat="49.03241877309792" lon="1.7886656189881167"><ele>161.4</ele><time>2026-03-22T13:14:50.999Z</time></trkpt><trkpt lat="49.03246301863552" lon="1.788801536137816"><ele>160.79999999999998</ele><time>2026-03-22T13:14:51.999Z</time></trkpt><trkpt lat="49.03252200722529" lon="1.7889394226133564"><ele>160.2</ele><time>2026-03-22T13:14:52.999Z</time></trkpt><trkpt lat="49.03258197831365" lon="1.7890857857757814"><ele>159.6</ele><time>2026-03-22T13:14:53.999Z</time></trkpt><trkpt lat="49.032621055217504" lon="1.7892320639369097"><ele>159.0</ele><time>2026-03-22T13:14:54.999Z</time></trkpt><trkpt lat="49.03266161932974" lon="1.7893610030376121"><ele>158.0</ele><time>2026-03-22T13:14:55.999Z</time></trkpt><trkpt lat="49.03269599235898" lon="1.7894906828713972"><ele>157.0</ele><time>2026-03-22T13:14:56.999Z</time></trkpt><trkpt lat="49.03274238959415" lon="1.7896231379419394"><ele>156.0</ele><time>2026-03-22T13:14:57.999Z</time></trkpt><trkpt lat="49.032794372685125" lon="1.789745187366623"><ele>155.0</ele><time>2026-03-22T13:14:58.999Z</time></trkpt><trkpt lat="49.03285322973665" lon="1.7898755715582917"><ele>154.0</ele><time>2026-03-22T13:14:59.999Z</time></trkpt><trkpt lat="49.03291050020211" lon="1.7899974326898809"><ele>154.0</ele><time>2026-03-22T13:15:00.999Z</time></trkpt><trkpt lat="49.032975952909034" lon="1.7901350074562967"><ele>154.0</ele><time>2026-03-22T13:15:01.999Z</time></trkpt><trkpt lat="49.03305374487239" lon="1.7902724795394847"><ele>154.0</ele><time>2026-03-22T13:15:02.999Z</time></trkpt><trkpt lat="49.03311859890052" lon="1.790441899664985"><ele>154.0</ele><time>2026-03-22T13:15:03.999Z</time></trkpt><trkpt lat="49.03318778911279" lon="1.7906044708309918"><ele>152.25</ele><time>2026-03-22T13:15:04.999Z</time></trkpt><trkpt lat="49.03325501574184" lon="1.7907354861301321"><ele>150.5</ele><time>2026-03-22T13:15:05.999Z</time></trkpt><trkpt lat="49.033326623482964" lon="1.7908601074442894"><ele>148.75</ele><time>2026-03-22T13:15:06.999Z</time></trkpt><trkpt lat="49.0333967469771" lon="1.7910015616296833"><ele>147.0</ele><time>2026-03-22T13:15:07.999Z</time></trkpt><trkpt lat="49.0334745466983" lon="1.7911478312842333"><ele>145.0</ele><time>2026-03-22T13:15:08.999Z</time></trkpt><trkpt lat="49.033551330891626" lon="1.7912739953184862"><ele>143.0</ele><time>2026-03-22T13:15:09.999Z</time></trkpt><trkpt lat="49.033636953907155" lon="1.7913791241057448"><ele>141.0</ele><time>2026-03-22T13:15:10.999Z</time></trkpt><trkpt lat="49.033739757235494" lon="1.7914825645824581"><ele>139.0</ele><time>2026-03-22T13:15:11.999Z</time></trkpt><trkpt lat="49.033849791769306" lon="1.7915878899443618"><ele>139.0</ele><time>2026-03-22T13:15:12.999Z</time></trkpt><trkpt lat="49.03395636688152" lon="1.7916695774255755"><ele>139.0</ele><time>2026-03-22T13:15:13.999Z</time></trkpt><trkpt lat="49.034052683400134" lon="1.7917463876850113"><ele>139.0</ele><time>2026-03-22T13:15:14.999Z</time></trkpt><trkpt lat="49.034143599046494" lon="1.7918140117232824"><ele>139.0</ele><time>2026-03-22T13:15:15.999Z</time></trkpt><trkpt lat="49.03423686724743" lon="1.7918870864305807"><ele>139.0</ele><time>2026-03-22T13:15:16.999Z</time></trkpt><trkpt lat="49.034319808392596" lon="1.7919650464554726"><ele>138.2</ele><time>2026-03-22T13:15:17.999Z</time></trkpt><trkpt lat="49.03438825736442" lon="1.792061787510878"><ele>137.4</ele><time>2026-03-22T13:15:18.999Z</time></trkpt><trkpt lat="49.0344473793491" lon="1.792180840847614"><ele>136.6</ele><time>2026-03-22T13:15:19.999Z</time></trkpt><trkpt lat="49.03449794754203" lon="1.792302685580808"><ele>135.8</ele><time>2026-03-22T13:15:20.999Z</time></trkpt><trkpt lat="49.03455004328411" lon="1.7924636552563311"><ele>135.0</ele><time>2026-03-22T13:15:21.999Z</time></trkpt><trkpt lat="49.03461272022199" lon="1.792645621715579"><ele>134.75</ele><time>2026-03-22T13:15:22.999Z</time></trkpt><trkpt lat="49.03467206082613" lon="1.7928086001424115"><ele>134.5</ele><time>2026-03-22T13:15:23.999Z</time></trkpt><trkpt lat="49.03473917011023" lon="1.7929781457239224"><ele>134.25</ele><time>2026-03-22T13:15:24.999Z</time></trkpt><trkpt lat="49.03479851864259" lon="1.7931402226582651"><ele>134.0</ele><time>2026-03-22T13:15:25.999Z</time></trkpt><trkpt lat="49.03486118674252" lon="1.79329762201185"><ele>134.0</ele><time>2026-03-22T13:15:26.999Z</time></trkpt><trkpt lat="49.03492454055751" lon="1.7934578125374798"><ele>134.0</ele><time>2026-03-22T13:15:27.999Z</time></trkpt><trkpt lat="49.03499269605856" lon="1.7936096790924554"><ele>134.0</ele><time>2026-03-22T13:15:28.999Z</time></trkpt><trkpt lat="49.03506778463903" lon="1.7937287152615937"><ele>134.0</ele><time>2026-03-22T13:15:29.999Z</time></trkpt><trkpt lat="49.03515341453602" lon="1.7938407252054893"><ele>134.0</ele><time>2026-03-22T13:15:30.999Z</time></trkpt><trkpt lat="49.03523584219064" lon="1.7939609442159385"><ele>134.0</ele><time>2026-03-22T13:15:31.999Z</time></trkpt><trkpt lat="49.03531387814794" lon="1.7940837314442308"><ele>134.0</ele><time>2026-03-22T13:15:32.999Z</time></trkpt><trkpt lat="49.035377728606086" lon="1.794188642377936"><ele>134.0</ele><time>2026-03-22T13:15:33.999Z</time></trkpt><trkpt lat="49.035436964628246" lon="1.7942771760085234"><ele>134.0</ele><time>2026-03-22T13:15:34.999Z</time></trkpt><trkpt lat="49.035485002219204" lon="1.7944240993127605"><ele>133.5</ele><time>2026-03-22T13:15:36.999Z</time></trkpt><trkpt lat="49.03540293014933" lon="1.7945373288670534"><ele>133.0</ele><time>2026-03-22T13:15:38.999Z</time></trkpt><trkpt lat="49.03531286819088" lon="1.7946023584428594"><ele>132.5</ele><time>2026-03-22T13:15:39.999Z</time></trkpt><trkpt lat="49.035196890968095" lon="1.794713145063345"><ele>132.0</ele><time>2026-03-22T13:15:40.999Z</time></trkpt><trkpt lat="49.03508385920893" lon="1.7948251317435837"><ele>131.5</ele><time>2026-03-22T13:15:41.999Z</time></trkpt><trkpt lat="49.03495196497858" lon="1.7948764613515207"><ele>131.0</ele><time>2026-03-22T13:15:42.999Z</time></trkpt><trkpt lat="49.034831323519136" lon="1.794998662541864"><ele>130.5</ele><time>2026-03-22T13:15:43.999Z</time></trkpt><trkpt lat="49.034715849697974" lon="1.795115629575907"><ele>130.0</ele><time>2026-03-22T13:15:44.999Z</time></trkpt><trkpt lat="49.03459223182164" lon="1.7952403964972723"><ele>129.33333333333334</ele><time>2026-03-22T13:15:45.999Z</time></trkpt><trkpt lat="49.03447581572792" lon="1.7953578833803936"><ele>128.66666666666666</ele><time>2026-03-22T13:15:46.999Z</time></trkpt><trkpt lat="49.03435022789442" lon="1.795485443867591"><ele>128.0</ele><time>2026-03-22T13:15:47.999Z</time></trkpt><trkpt lat="49.034217156694325" lon="1.795620622568882"><ele>127.33333333333333</ele><time>2026-03-22T13:15:48.999Z</time></trkpt><trkpt lat="49.03407835314762" lon="1.7957616179073064"><ele>126.66666666666666</ele><time>2026-03-22T13:15:49.999Z</time></trkpt><trkpt lat="49.03393498932773" lon="1.7959072341062372"><ele>126.0</ele><time>2026-03-22T13:15:50.999Z</time></trkpt><trkpt lat="49.03378156931227" lon="1.7960630642823363"><ele>125.66666666666666</ele><time>2026-03-22T13:15:51.999Z</time></trkpt><trkpt lat="49.03365035096756" lon="1.7961968192897388"><ele>125.33333333333333</ele><time>2026-03-22T13:15:52.999Z</time></trkpt><trkpt lat="49.03351590886646" lon="1.7963346729225191"><ele>125.0</ele><time>2026-03-22T13:15:53.999Z</time></trkpt><trkpt lat="49.03337927882079" lon="1.7964746838936514"><ele>125.33333333333333</ele><time>2026-03-22T13:15:54.999Z</time></trkpt><trkpt lat="49.03323481501662" lon="1.796612697352364"><ele>125.66666666666666</ele><time>2026-03-22T13:15:55.999Z</time></trkpt><trkpt lat="49.03309485067485" lon="1.7967455321545862"><ele>126.0</ele><time>2026-03-22T13:15:56.999Z</time></trkpt><trkpt lat="49.0329745962214" lon="1.7968927427817143"><ele>125.33333333333334</ele><time>2026-03-22T13:15:57.999Z</time></trkpt><trkpt lat="49.032876650996975" lon="1.7970415468873269"><ele>124.66666666666667</ele><time>2026-03-22T13:15:58.999Z</time></trkpt><trkpt lat="49.03278054458383" lon="1.7972167341621528"><ele>124.0</ele><time>2026-03-22T13:15:59.999Z</time></trkpt><trkpt lat="49.03267915326342" lon="1.7974129014982025"><ele>124.0</ele><time>2026-03-22T13:16:00.999Z</time></trkpt><trkpt lat="49.03258080527075" lon="1.797624009649945"><ele>124.0</ele><time>2026-03-22T13:16:01.999Z</time></trkpt><trkpt lat="49.032477646170854" lon="1.7978459488329894"><ele>124.0</ele><time>2026-03-22T13:16:02.999Z</time></trkpt><trkpt lat="49.03237713327563" lon="1.7980181534428301"><ele>123.0</ele><time>2026-03-22T13:16:03.999Z</time></trkpt><trkpt lat="49.03229079110624" lon="1.7981681028933545"><ele>122.0</ele><time>2026-03-22T13:16:04.999Z</time></trkpt><trkpt lat="49.03221425642326" lon="1.7982897898375525"><ele>121.0</ele><time>2026-03-22T13:16:05.999Z</time></trkpt><trkpt lat="49.03213176154573" lon="1.7984037920265414"><ele>120.0</ele><time>2026-03-22T13:16:06.999Z</time></trkpt><trkpt lat="49.03204362351732" lon="1.798525596112259"><ele>119.33333333333334</ele><time>2026-03-22T13:16:07.999Z</time></trkpt><trkpt lat="49.03195402897035" lon="1.798649413065045"><ele>118.66666666666667</ele><time>2026-03-22T13:16:08.999Z</time></trkpt><trkpt lat="49.03198046031887" lon="1.7989752252127131"><ele>118.0</ele><time>2026-03-22T13:16:09.999Z</time></trkpt><trkpt lat="49.03191783843264" lon="1.7992063869643857"><ele>117.33333333333334</ele><time>2026-03-22T13:16:10.999Z</time></trkpt><trkpt lat="49.03184685295408" lon="1.7994265076563452"><ele>116.66666666666666</ele><time>2026-03-22T13:16:11.999Z</time></trkpt><trkpt lat="49.03177925114214" lon="1.7996182764602675"><ele>116.0</ele><time>2026-03-22T13:16:12.999Z</time></trkpt><trkpt lat="49.03171627379571" lon="1.7998259042326616"><ele>116.0</ele><time>2026-03-22T13:16:13.999Z</time></trkpt><trkpt lat="49.031645170424596" lon="1.8000223396626969"><ele>116.0</ele><time>2026-03-22T13:16:14.999Z</time></trkpt><trkpt lat="49.03155801970156" lon="1.8001947285437918"><ele>116.0</ele><time>2026-03-22T13:16:15.999Z</time></trkpt><trkpt lat="49.031453742761705" lon="1.8003812660708618"><ele>114.66666666666666</ele><time>2026-03-22T13:16:16.999Z</time></trkpt><trkpt lat="49.03136258428137" lon="1.800578073487024"><ele>113.33333333333334</ele><time>2026-03-22T13:16:17.999Z</time></trkpt><trkpt lat="49.03129853650931" lon="1.8007805850713483"><ele>112.0</ele><time>2026-03-22T13:16:19Z</time></trkpt><trkpt lat="49.03124273932291" lon="1.8010244867891672"><ele>111.66666666666667</ele><time>2026-03-22T13:16:20Z</time></trkpt><trkpt lat="49.0311711112592" lon="1.801260421814732"><ele>111.33333333333334</ele><time>2026-03-22T13:16:21Z</time></trkpt><trkpt lat="49.0310714774918" lon="1.8014763405949106"><ele>111.0</ele><time>2026-03-22T13:16:22Z</time></trkpt><trkpt lat="49.03096459628426" lon="1.8016657740910849"><ele>111.66666666666666</ele><time>2026-03-22T13:16:23Z</time></trkpt><trkpt lat="49.03085848942668" lon="1.8018566875274966"><ele>112.33333333333333</ele><time>2026-03-22T13:16:24Z</time></trkpt><trkpt lat="49.03077877687121" lon="1.8020479043897901"><ele>113.0</ele><time>2026-03-22T13:16:25Z</time></trkpt><trkpt lat="49.03071101075549" lon="1.8022777913045849"><ele>113.66666666666666</ele><time>2026-03-22T13:16:26Z</time></trkpt><trkpt lat="49.03064185087392" lon="1.8025274461325729"><ele>114.33333333333334</ele><time>2026-03-22T13:16:27Z</time></trkpt><trkpt lat="49.03056389856225" lon="1.8027854388440987"><ele>115.0</ele><time>2026-03-22T13:16:28Z</time></trkpt><trkpt lat="49.03048695526671" lon="1.8030520210658707"><ele>116.0</ele><time>2026-03-22T13:16:29Z</time></trkpt><trkpt lat="49.030420633350595" lon="1.8033226876152049"><ele>117.0</ele><time>2026-03-22T13:16:30Z</time></trkpt><trkpt lat="49.03035487235123" lon="1.8036080188026948"><ele>118.0</ele><time>2026-03-22T13:16:31Z</time></trkpt><trkpt lat="49.03029177887272" lon="1.8038976861746145"><ele>118.33333333333334</ele><time>2026-03-22T13:16:32Z</time></trkpt><trkpt lat="49.030231814915744" lon="1.804161528026522"><ele>118.66666666666666</ele><time>2026-03-22T13:16:33Z</time></trkpt><trkpt lat="49.030170441204625" lon="1.8043945075988264"><ele>119.0</ele><time>2026-03-22T13:16:34Z</time></trkpt><trkpt lat="49.03011132465645" lon="1.8046143490153137"><ele>119.5</ele><time>2026-03-22T13:16:35Z</time></trkpt><trkpt lat="49.030057256610526" lon="1.8048029618684525"><ele>120.0</ele><time>2026-03-22T13:16:36Z</time></trkpt><trkpt lat="49.030007315280905" lon="1.8049716547638197"><ele>120.5</ele><time>2026-03-22T13:16:37Z</time></trkpt><trkpt lat="49.029960156754974" lon="1.8051058160811033"><ele>121.0</ele><time>2026-03-22T13:16:38Z</time></trkpt><trkpt lat="49.02990767866866" lon="1.805224865652134"><ele>121.25</ele><time>2026-03-22T13:16:39Z</time></trkpt><trkpt lat="49.02983301242443" lon="1.8053314678242465"><ele>121.5</ele><time>2026-03-22T13:16:40Z</time></trkpt><trkpt lat="49.02974759226224" lon="1.8054498797602523"><ele>121.75</ele><time>2026-03-22T13:16:41Z</time></trkpt><trkpt lat="49.02966455503348" lon="1.8055655116973561"><ele>122.0</ele><time>2026-03-22T13:16:42Z</time></trkpt><trkpt lat="49.02957571115858" lon="1.8056944811058626"><ele>122.0</ele><time>2026-03-22T13:16:43Z</time></trkpt><trkpt lat="49.02947803823106" lon="1.8058547015242126"><ele>122.0</ele><time>2026-03-22T13:16:44Z</time></trkpt><trkpt lat="49.02938171237813" lon="1.8060111023658914"><ele>122.0</ele><time>2026-03-22T13:16:45Z</time></trkpt><trkpt lat="49.02928130186744" lon="1.8061567820542865"><ele>122.0</ele><time>2026-03-22T13:16:46Z</time></trkpt><trkpt lat="49.029178510646354" lon="1.8062905076650169"><ele>122.5</ele><time>2026-03-22T13:16:47Z</time></trkpt><trkpt lat="49.029077386778084" lon="1.8064106339386001"><ele>123.0</ele><time>2026-03-22T13:16:47.999Z</time></trkpt><trkpt lat="49.02897586805611" lon="1.8065214279620592"><ele>123.5</ele><time>2026-03-22T13:16:48.999Z</time></trkpt><trkpt lat="49.028875097123446" lon="1.8066243215173698"><ele>124.0</ele><time>2026-03-22T13:16:49.999Z</time></trkpt><trkpt lat="49.028761194558236" lon="1.806747144890576"><ele>124.0</ele><time>2026-03-22T13:16:50.999Z</time></trkpt><trkpt lat="49.02864300606036" lon="1.8068670110093905"><ele>124.0</ele><time>2026-03-22T13:16:51.999Z</time></trkpt><trkpt lat="49.02852129066369" lon="1.8069932101570882"><ele>124.0</ele><time>2026-03-22T13:16:52.999Z</time></trkpt><trkpt lat="49.02839090560875" lon="1.8071311720706225"><ele>124.0</ele><time>2026-03-22T13:16:53.999Z</time></trkpt><trkpt lat="49.02825896367993" lon="1.8072713029084426"><ele>124.0</ele><time>2026-03-22T13:16:54.999Z</time></trkpt><trkpt lat="49.02813828042916" lon="1.8074062345855195"><ele>124.0</ele><time>2026-03-22T13:16:55.999Z</time></trkpt><trkpt lat="49.028014358759066" lon="1.8075578593045565"><ele>124.0</ele><time>2026-03-22T13:16:56.999Z</time></trkpt><trkpt lat="49.02788612570678" lon="1.807717165661786"><ele>124.0</ele><time>2026-03-22T13:16:57.999Z</time></trkpt><trkpt lat="49.027770981374466" lon="1.8078566943351526"><ele>124.0</ele><time>2026-03-22T13:16:58.999Z</time></trkpt><trkpt lat="49.02766417516664" lon="1.8079882699888965"><ele>124.0</ele><time>2026-03-22T13:16:59.999Z</time></trkpt><trkpt lat="49.027554404346134" lon="1.8081277193021794"><ele>124.0</ele><time>2026-03-22T13:17:00.999Z</time></trkpt><trkpt lat="49.02743588838588" lon="1.8082777300848094"><ele>124.0</ele><time>2026-03-22T13:17:01.999Z</time></trkpt><trkpt lat="49.02730984053783" lon="1.808428079776316"><ele>124.0</ele><time>2026-03-22T13:17:02.999Z</time></trkpt><trkpt lat="49.0271802071723" lon="1.8085813134373052"><ele>124.0</ele><time>2026-03-22T13:17:03.999Z</time></trkpt><trkpt lat="49.02706267053241" lon="1.8087203262890967"><ele>124.0</ele><time>2026-03-22T13:17:04.999Z</time></trkpt><trkpt lat="49.02694999429162" lon="1.8088611956537586"><ele>124.0</ele><time>2026-03-22T13:17:05.999Z</time></trkpt><trkpt lat="49.02683851544125" lon="1.8090251639518065"><ele>124.0</ele><time>2026-03-22T13:17:06.999Z</time></trkpt><trkpt lat="49.026727617123505" lon="1.809211778952868"><ele>122.66666666666667</ele><time>2026-03-22T13:17:07.999Z</time></trkpt><trkpt lat="49.026626002549555" lon="1.8094326684999718"><ele>121.33333333333334</ele><time>2026-03-22T13:17:08.999Z</time></trkpt><trkpt lat="49.02652981865074" lon="1.8096771815688522"><ele>120.0</ele><time>2026-03-22T13:17:09.999Z</time></trkpt><trkpt lat="49.02642946935619" lon="1.8099434337028213"><ele>119.33333333333334</ele><time>2026-03-22T13:17:10.999Z</time></trkpt><trkpt lat="49.02633160483859" lon="1.8101701851345056"><ele>118.66666666666667</ele><time>2026-03-22T13:17:11.999Z</time></trkpt><trkpt lat="49.026247537100446" lon="1.8103588785187725"><ele>118.0</ele><time>2026-03-22T13:17:12.999Z</time></trkpt><trkpt lat="49.02616555110611" lon="1.8105298746431626"><ele>118.0</ele><time>2026-03-22T13:17:13.999Z</time></trkpt><trkpt lat="49.02609328435071" lon="1.8106805102626777"><ele>118.00000000000001</ele><time>2026-03-22T13:17:14.999Z</time></trkpt><trkpt lat="49.02603013401803" lon="1.8108103757347929"><ele>118.00000000000001</ele><time>2026-03-22T13:17:15.999Z</time></trkpt><trkpt lat="49.025973473921084" lon="1.8109232698333033"><ele>118.0</ele><time>2026-03-22T13:17:16.999Z</time></trkpt><trkpt lat="49.025930948449506" lon="1.8110059985140714"><ele>118.0</ele><time>2026-03-22T13:17:17.999Z</time></trkpt><trkpt lat="49.025897038473836" lon="1.8110952157944045"><ele>117.4</ele><time>2026-03-22T13:17:18.999Z</time></trkpt><trkpt lat="49.025878610619614" lon="1.8112337201730002"><ele>116.80000000000001</ele><time>2026-03-22T13:17:19.999Z</time></trkpt><trkpt lat="49.025883847892125" lon="1.8114039345143336"><ele>116.2</ele><time>2026-03-22T13:17:20.999Z</time></trkpt><trkpt lat="49.02584871000921" lon="1.8115766409982013"><ele>115.6</ele><time>2026-03-22T13:17:21.999Z</time></trkpt><trkpt lat="49.0258303052034" lon="1.8117379132333988"><ele>115.0</ele><time>2026-03-22T13:17:22.999Z</time></trkpt><trkpt lat="49.02580359785311" lon="1.8119180382965763"><ele>113.75</ele><time>2026-03-22T13:17:23.999Z</time></trkpt><trkpt lat="49.0257707410665" lon="1.8121035979397344"><ele>112.5</ele><time>2026-03-22T13:17:24.999Z</time></trkpt><trkpt lat="49.025734985812136" lon="1.8123039424212426"><ele>111.25</ele><time>2026-03-22T13:17:25.999Z</time></trkpt><trkpt lat="49.02571365909214" lon="1.8125005529001457"><ele>110.0</ele><time>2026-03-22T13:17:26.999Z</time></trkpt><trkpt lat="49.02566822320538" lon="1.8126652786102688"><ele>109.8</ele><time>2026-03-22T13:17:27.999Z</time></trkpt><trkpt lat="49.02563983915195" lon="1.8128329030735175"><ele>109.6</ele><time>2026-03-22T13:17:28.999Z</time></trkpt><trkpt lat="49.025619049764245" lon="1.812987228262108"><ele>109.4</ele><time>2026-03-22T13:17:29.999Z</time></trkpt><trkpt lat="49.02559973056288" lon="1.8131382511801561"><ele>109.2</ele><time>2026-03-22T13:17:30.999Z</time></trkpt><trkpt lat="49.02558627167539" lon="1.8132698769714786"><ele>109.0</ele><time>2026-03-22T13:17:31.999Z</time></trkpt><trkpt lat="49.02557569938994" lon="1.813372996649673"><ele>109.0</ele><time>2026-03-22T13:17:32.999Z</time></trkpt><trkpt lat="49.0255727638421" lon="1.8135062300817517"><ele>109.0</ele><time>2026-03-22T13:17:34.999Z</time></trkpt><trkpt lat="49.025472023331545" lon="1.8134059124290234"><ele>109.0</ele><time>2026-03-22T13:17:37.999Z</time></trkpt><trkpt lat="49.02540911394563" lon="1.8132768761485532"><ele>109.0</ele><time>2026-03-22T13:17:38.999Z</time></trkpt><trkpt lat="49.025338962631196" lon="1.8131684970780275"><ele>109.0</ele><time>2026-03-22T13:17:39.999Z</time></trkpt><trkpt lat="49.025259345935595" lon="1.813064296705441"><ele>109.0</ele><time>2026-03-22T13:17:40.999Z</time></trkpt><trkpt lat="49.02516118616774" lon="1.8129641738608309"><ele>109.0</ele><time>2026-03-22T13:17:41.999Z</time></trkpt><trkpt lat="49.025058224287044" lon="1.8128793750391143"><ele>109.0</ele><time>2026-03-22T13:17:42.999Z</time></trkpt><trkpt lat="49.024950652869244" lon="1.8127987624700523"><ele>109.0</ele><time>2026-03-22T13:17:43.999Z</time></trkpt><trkpt lat="49.02483222467572" lon="1.8127471742370047"><ele>109.80000000000001</ele><time>2026-03-22T13:17:44.999Z</time></trkpt><trkpt lat="49.024730257089175" lon="1.8127596624778095"><ele>110.60000000000001</ele><time>2026-03-22T13:17:45.999Z</time></trkpt><trkpt lat="49.02462753750081" lon="1.812825230003842"><ele>111.4</ele><time>2026-03-22T13:17:46.999Z</time></trkpt><trkpt lat="49.0245236529387" lon="1.8128810262251096"><ele>112.2</ele><time>2026-03-22T13:17:47.999Z</time></trkpt><trkpt lat="49.02440103643493" lon="1.8128660403503263"><ele>113.0</ele><time>2026-03-22T13:17:48.999Z</time></trkpt><trkpt lat="49.02425472930145" lon="1.812822594162833"><ele>115.0</ele><time>2026-03-22T13:17:49.999Z</time></trkpt><trkpt lat="49.02410705459001" lon="1.8128123576557087"><ele>117.0</ele><time>2026-03-22T13:17:50.999Z</time></trkpt><trkpt lat="49.02395526913682" lon="1.8128129717394654"><ele>119.0</ele><time>2026-03-22T13:17:51.999Z</time></trkpt><trkpt lat="49.02379823415831" lon="1.8128014418339373"><ele>119.0</ele><time>2026-03-22T13:17:52.999Z</time></trkpt><trkpt lat="49.02363906761881" lon="1.8127814088416225"><ele>119.0</ele><time>2026-03-22T13:17:53.999Z</time></trkpt><trkpt lat="49.023467589958834" lon="1.812760984070562"><ele>119.0</ele><time>2026-03-22T13:17:54.999Z</time></trkpt><trkpt lat="49.023309449743394" lon="1.8127427534516747"><ele>120.33333333333333</ele><time>2026-03-22T13:17:55.999Z</time></trkpt><trkpt lat="49.02316317348596" lon="1.812724279452882"><ele>121.66666666666666</ele><time>2026-03-22T13:17:56.999Z</time></trkpt><trkpt lat="49.023015321862026" lon="1.8127116414175364"><ele>123.0</ele><time>2026-03-22T13:17:57.999Z</time></trkpt><trkpt lat="49.02285342790926" lon="1.812698313204148"><ele>123.0</ele><time>2026-03-22T13:17:58.999Z</time></trkpt><trkpt lat="49.02269511633613" lon="1.8126852563836924"><ele>123.0</ele><time>2026-03-22T13:17:59.999Z</time></trkpt><trkpt lat="49.02254589576963" lon="1.8126654320190505"><ele>123.0</ele><time>2026-03-22T13:18:00.999Z</time></trkpt><trkpt lat="49.02239288444186" lon="1.8126454065687438"><ele>123.66666666666666</ele><time>2026-03-22T13:18:01.999Z</time></trkpt><trkpt lat="49.02223513977863" lon="1.8126264373692005"><ele>124.33333333333333</ele><time>2026-03-22T13:18:02.999Z</time></trkpt><trkpt lat="49.022090080323494" lon="1.8126014616795334"><ele>125.0</ele><time>2026-03-22T13:18:03.999Z</time></trkpt><trkpt lat="49.021941048338626" lon="1.8125489074229189"><ele>125.0</ele><time>2026-03-22T13:18:04.999Z</time></trkpt><trkpt lat="49.021793708641205" lon="1.8124710393407835"><ele>125.0</ele><time>2026-03-22T13:18:05.999Z</time></trkpt><trkpt lat="49.02167305619372" lon="1.812381816790771"><ele>125.0</ele><time>2026-03-22T13:18:06.999Z</time></trkpt><trkpt lat="49.02156678982812" lon="1.812296661815974"><ele>125.0</ele><time>2026-03-22T13:18:07.999Z</time></trkpt><trkpt lat="49.0214705390243" lon="1.8122132302182903"><ele>125.75</ele><time>2026-03-22T13:18:08.999Z</time></trkpt><trkpt lat="49.02136029689455" lon="1.8121373864190302"><ele>126.5</ele><time>2026-03-22T13:18:09.999Z</time></trkpt><trkpt lat="49.0212357388404" lon="1.8120900073888073"><ele>127.25</ele><time>2026-03-22T13:18:10.999Z</time></trkpt><trkpt lat="49.021091688277565" lon="1.8120458310663907"><ele>128.0</ele><time>2026-03-22T13:18:11.999Z</time></trkpt><trkpt lat="49.02094769768406" lon="1.8120175528963236"><ele>129.0</ele><time>2026-03-22T13:18:12.999Z</time></trkpt><trkpt lat="49.02079582833626" lon="1.8119990186971733"><ele>130.0</ele><time>2026-03-22T13:18:13.999Z</time></trkpt><trkpt lat="49.020651797437694" lon="1.8119849871457534"><ele>131.0</ele><time>2026-03-22T13:18:14.999Z</time></trkpt><trkpt lat="49.02050033967424" lon="1.8119758321236643"><ele>132.0</ele><time>2026-03-22T13:18:15.999Z</time></trkpt><trkpt lat="49.020347980271154" lon="1.8119762270644635"><ele>132.0</ele><time>2026-03-22T13:18:16.999Z</time></trkpt><trkpt lat="49.020196666429015" lon="1.8119788963509438"><ele>132.0</ele><time>2026-03-22T13:18:17.999Z</time></trkpt><trkpt lat="49.02004348840215" lon="1.8119807725077193"><ele>132.0</ele><time>2026-03-22T13:18:18.999Z</time></trkpt><trkpt lat="49.01989957416892" lon="1.8119762871515863"><ele>132.0</ele><time>2026-03-22T13:18:19.999Z</time></trkpt><trkpt lat="49.019758706755525" lon="1.811974955382672"><ele>133.0</ele><time>2026-03-22T13:18:20.999Z</time></trkpt><trkpt lat="49.01964329401616" lon="1.8119790651368515"><ele>134.0</ele><time>2026-03-22T13:18:21.999Z</time></trkpt><trkpt lat="49.01954452119784" lon="1.8119862594264173"><ele>135.0</ele><time>2026-03-22T13:18:22.999Z</time></trkpt><trkpt lat="49.019439096701355" lon="1.8119691909370745"><ele>136.0</ele><time>2026-03-22T13:18:23.999Z</time></trkpt><trkpt lat="49.01933518031368" lon="1.8119152776321075"><ele>137.0</ele><time>2026-03-22T13:18:25Z</time></trkpt><trkpt lat="49.019240226080456" lon="1.811829336474929"><ele>137.5</ele><time>2026-03-22T13:18:26Z</time></trkpt><trkpt lat="49.01915832765773" lon="1.8117517731603268"><ele>138.0</ele><time>2026-03-22T13:18:27Z</time></trkpt><trkpt lat="49.01906137121716" lon="1.8117331263476752"><ele>138.5</ele><time>2026-03-22T13:18:29Z</time></trkpt><trkpt lat="49.018936508589825" lon="1.81187315186749"><ele>139.0</ele><time>2026-03-22T13:18:31Z</time></trkpt><trkpt lat="49.018853739032295" lon="1.811980673514576"><ele>138.75</ele><time>2026-03-22T13:18:32Z</time></trkpt><trkpt lat="49.018775673682626" lon="1.8121281565946232"><ele>138.5</ele><time>2026-03-22T13:18:33Z</time></trkpt><trkpt lat="49.01870929234572" lon="1.812306361724632"><ele>138.25</ele><time>2026-03-22T13:18:34Z</time></trkpt><trkpt lat="49.018699944003224" lon="1.8124983965747279"><ele>138.0</ele><time>2026-03-22T13:18:35Z</time></trkpt><trkpt lat="49.018704077049534" lon="1.8126794548467182"><ele>138.0</ele><time>2026-03-22T13:18:36Z</time></trkpt><trkpt lat="49.01871050602243" lon="1.8128886736532908"><ele>138.0</ele><time>2026-03-22T13:18:37Z</time></trkpt><trkpt lat="49.01871675841405" lon="1.8131197774146524"><ele>138.0</ele><time>2026-03-22T13:18:38Z</time></trkpt><trkpt lat="49.01872084253589" lon="1.8133823567289205"><ele>137.33333333333334</ele><time>2026-03-22T13:18:39Z</time></trkpt><trkpt lat="49.01872387788502" lon="1.8136564362724168"><ele>136.66666666666669</ele><time>2026-03-22T13:18:40Z</time></trkpt><trkpt lat="49.018726856453895" lon="1.8139253887186177"><ele>136.0</ele><time>2026-03-22T13:18:41Z</time></trkpt><trkpt lat="49.018727665171326" lon="1.8141664951717273"><ele>136.5</ele><time>2026-03-22T13:18:42Z</time></trkpt><trkpt lat="49.01872828507186" lon="1.814378486360994"><ele>137.0</ele><time>2026-03-22T13:18:43Z</time></trkpt><trkpt lat="49.01873222607342" lon="1.8145658550662433"><ele>137.5</ele><time>2026-03-22T13:18:44Z</time></trkpt><trkpt lat="49.01875263021365" lon="1.814742474727351"><ele>138.0</ele><time>2026-03-22T13:18:45Z</time></trkpt><trkpt lat="49.01880859771129" lon="1.8148868387417736"><ele>138.0</ele><time>2026-03-22T13:18:46Z</time></trkpt><trkpt lat="49.01889947137103" lon="1.8150227193537278"><ele>138.0</ele><time>2026-03-22T13:18:47Z</time></trkpt><trkpt lat="49.019032198845395" lon="1.8151556087326706"><ele>138.0</ele><time>2026-03-22T13:18:48Z</time></trkpt><trkpt lat="49.01918842385474" lon="1.8153257693253468"><ele>134.0</ele><time>2026-03-22T13:18:49Z</time></trkpt><trkpt lat="49.019341312265375" lon="1.8155137339764866"><ele>130.0</ele><time>2026-03-22T13:18:50Z</time></trkpt><trkpt lat="49.019499704966556" lon="1.8157058604708396"><ele>126.0</ele><time>2026-03-22T13:18:51Z</time></trkpt><trkpt lat="49.019638042022684" lon="1.815886669609443"><ele>126.66666666666666</ele><time>2026-03-22T13:18:52Z</time></trkpt><trkpt lat="49.019775664850904" lon="1.8160655103496814"><ele>127.33333333333333</ele><time>2026-03-22T13:18:53Z</time></trkpt><trkpt lat="49.01992014117732" lon="1.8162417337125019"><ele>128.0</ele><time>2026-03-22T13:18:54Z</time></trkpt><trkpt lat="49.02005562437137" lon="1.8164028921423832"><ele>125.0</ele><time>2026-03-22T13:18:55Z</time></trkpt><trkpt lat="49.020189858530856" lon="1.8165664530836731"><ele>122.0</ele><time>2026-03-22T13:18:56Z</time></trkpt><trkpt lat="49.020317134624264" lon="1.8167207833799983"><ele>119.0</ele><time>2026-03-22T13:18:57Z</time></trkpt><trkpt lat="49.020445880765934" lon="1.8168609200377888"><ele>119.0</ele><time>2026-03-22T13:18:58Z</time></trkpt><trkpt lat="49.020590453280235" lon="1.8169714967816133"><ele>119.0</ele><time>2026-03-22T13:18:59Z</time></trkpt><trkpt lat="49.0207534390033" lon="1.8170498226604646"><ele>119.0</ele><time>2026-03-22T13:19:00Z</time></trkpt><trkpt lat="49.02090838833866" lon="1.817116153565107"><ele>118.0</ele><time>2026-03-22T13:19:01Z</time></trkpt><trkpt lat="49.02105000743118" lon="1.8171773555637074"><ele>117.0</ele><time>2026-03-22T13:19:02Z</time></trkpt><trkpt lat="49.021179302089564" lon="1.8172439492748225"><ele>116.0</ele><time>2026-03-22T13:19:03Z</time></trkpt><trkpt lat="49.02129174512649" lon="1.8172989578555803"><ele>115.0</ele><time>2026-03-22T13:19:04Z</time></trkpt><trkpt lat="49.021387929795694" lon="1.8173544348059152"><ele>115.0</ele><time>2026-03-22T13:19:05Z</time></trkpt><trkpt lat="49.021465572926346" lon="1.8174241231167745"><ele>115.0</ele><time>2026-03-22T13:19:06Z</time></trkpt><trkpt lat="49.02151615181711" lon="1.8175255091541223"><ele>115.0</ele><time>2026-03-22T13:19:07Z</time></trkpt><trkpt lat="49.02152477631356" lon="1.8176656164277096"><ele>115.0</ele><time>2026-03-22T13:19:07.999Z</time></trkpt><trkpt lat="49.02148908766221" lon="1.8177987864263077"><ele>115.0</ele><time>2026-03-22T13:19:08.999Z</time></trkpt><trkpt lat="49.021484265126126" lon="1.8179586511860337"><ele>115.0</ele><time>2026-03-22T13:19:09.999Z</time></trkpt><trkpt lat="49.021493542818405" lon="1.8181213105567207"><ele>115.0</ele><time>2026-03-22T13:19:10.999Z</time></trkpt><trkpt lat="49.02151875113552" lon="1.8182756987663964"><ele>115.0</ele><time>2026-03-22T13:19:11.999Z</time></trkpt><trkpt lat="49.02156208060365" lon="1.8184086193801379"><ele>115.0</ele><time>2026-03-22T13:19:12.999Z</time></trkpt><trkpt lat="49.02160814603142" lon="1.818548950111141"><ele>115.0</ele><time>2026-03-22T13:19:13.999Z</time></trkpt><trkpt lat="49.02170722955838" lon="1.8186487257923134"><ele>115.0</ele><time>2026-03-22T13:19:14.999Z</time></trkpt><trkpt lat="49.02178519098512" lon="1.818739434348608"><ele>115.0</ele><time>2026-03-22T13:19:15.999Z</time></trkpt><trkpt lat="49.02191710102275" lon="1.8187225219824308"><ele>115.0</ele><time>2026-03-22T13:19:16.999Z</time></trkpt><trkpt lat="49.02203234083657" lon="1.818784363557962"><ele>115.0</ele><time>2026-03-22T13:19:17.999Z</time></trkpt><trkpt lat="49.02212334126369" lon="1.8188792365334518"><ele>115.0</ele><time>2026-03-22T13:19:18.999Z</time></trkpt><trkpt lat="49.022192085873876" lon="1.819014830391975"><ele>115.0</ele><time>2026-03-22T13:19:19.999Z</time></trkpt><trkpt lat="49.02222336172313" lon="1.8192287447077462"><ele>115.0</ele><time>2026-03-22T13:19:20.999Z</time></trkpt><trkpt lat="49.022276095741425" lon="1.8194436185671796"><ele>115.0</ele><time>2026-03-22T13:19:21.999Z</time></trkpt><trkpt lat="49.02232617147433" lon="1.8197014616330986"><ele>116.0</ele><time>2026-03-22T13:19:22.999Z</time></trkpt><trkpt lat="49.022387372979686" lon="1.8199493541389777"><ele>117.0</ele><time>2026-03-22T13:19:23.999Z</time></trkpt><trkpt lat="49.02245239495634" lon="1.8202133522086197"><ele>118.0</ele><time>2026-03-22T13:19:24.999Z</time></trkpt><trkpt lat="49.022496929809506" lon="1.8204603735118974"><ele>118.0</ele><time>2026-03-22T13:19:25.999Z</time></trkpt><trkpt lat="49.02252562739167" lon="1.820702204611261"><ele>118.0</ele><time>2026-03-22T13:19:26.999Z</time></trkpt><trkpt lat="49.022546875696754" lon="1.8209590337811108"><ele>118.0</ele><time>2026-03-22T13:19:27.999Z</time></trkpt><trkpt lat="49.02255649285191" lon="1.8212182540002497"><ele>118.0</ele><time>2026-03-22T13:19:28.999Z</time></trkpt><trkpt lat="49.022557463791635" lon="1.8214991727939431"><ele>118.0</ele><time>2026-03-22T13:19:29.999Z</time></trkpt><trkpt lat="49.02255884897807" lon="1.821794490383822"><ele>118.0</ele><time>2026-03-22T13:19:30.999Z</time></trkpt><trkpt lat="49.022564324233606" lon="1.8220652723750375"><ele>118.33333333333334</ele><time>2026-03-22T13:19:31.999Z</time></trkpt><trkpt lat="49.02258128186155" lon="1.8223473789034648"><ele>118.66666666666666</ele><time>2026-03-22T13:19:32.999Z</time></trkpt><trkpt lat="49.02258996317071" lon="1.8226134180245486"><ele>119.0</ele><time>2026-03-22T13:19:33.999Z</time></trkpt><trkpt lat="49.02258720269079" lon="1.8228782162177277"><ele>119.33333333333333</ele><time>2026-03-22T13:19:34.999Z</time></trkpt><trkpt lat="49.02262592551577" lon="1.8231348196764836"><ele>119.66666666666666</ele><time>2026-03-22T13:19:35.999Z</time></trkpt><trkpt lat="49.0226090028786" lon="1.8233725551091648"><ele>120.0</ele><time>2026-03-22T13:19:36.999Z</time></trkpt><trkpt lat="49.022598399366096" lon="1.8236018492024564"><ele>120.0</ele><time>2026-03-22T13:19:37.999Z</time></trkpt><trkpt lat="49.02258682236897" lon="1.8238247993844268"><ele>120.0</ele><time>2026-03-22T13:19:38.999Z</time></trkpt><trkpt lat="49.02254280994885" lon="1.824061119558583"><ele>120.0</ele><time>2026-03-22T13:19:39.999Z</time></trkpt><trkpt lat="49.02253569066977" lon="1.8243158517504425"><ele>120.0</ele><time>2026-03-22T13:19:40.999Z</time></trkpt><trkpt lat="49.02255579836711" lon="1.824570566427777"><ele>120.0</ele><time>2026-03-22T13:19:41.999Z</time></trkpt><trkpt lat="49.02254108565752" lon="1.8248069573341483"><ele>120.0</ele><time>2026-03-22T13:19:42.999Z</time></trkpt><trkpt lat="49.02253169130012" lon="1.8250240018027217"><ele>120.0</ele><time>2026-03-22T13:19:43.999Z</time></trkpt><trkpt lat="49.022521104213524" lon="1.8252441425517008"><ele>120.0</ele><time>2026-03-22T13:19:44.999Z</time></trkpt><trkpt lat="49.02251347305545" lon="1.8254756819533982"><ele>120.0</ele><time>2026-03-22T13:19:45.999Z</time></trkpt><trkpt lat="49.02250985302161" lon="1.825710568887916"><ele>120.0</ele><time>2026-03-22T13:19:46.999Z</time></trkpt><trkpt lat="49.02250188397034" lon="1.8258932089116184"><ele>120.0</ele><time>2026-03-22T13:19:47.999Z</time></trkpt><trkpt lat="49.02249286696694" lon="1.8260218695530868"><ele>120.0</ele><time>2026-03-22T13:19:48.999Z</time></trkpt><trkpt lat="49.02248479251303" lon="1.8261526150764555"><ele>120.0</ele><time>2026-03-22T13:19:49.999Z</time></trkpt><trkpt lat="49.022488740418936" lon="1.826323643962327"><ele>120.0</ele><time>2026-03-22T13:19:50.999Z</time></trkpt><trkpt lat="49.02248839378064" lon="1.8265144415997439"><ele>120.5</ele><time>2026-03-22T13:19:51.999Z</time></trkpt><trkpt lat="49.022481148742465" lon="1.8267415957021325"><ele>121.0</ele><time>2026-03-22T13:19:52.999Z</time></trkpt><trkpt lat="49.02247426361189" lon="1.8269478137236645"><ele>121.5</ele><time>2026-03-22T13:19:53.999Z</time></trkpt><trkpt lat="49.02246624675553" lon="1.8271698838848476"><ele>122.0</ele><time>2026-03-22T13:19:54.999Z</time></trkpt><trkpt lat="49.022460678126166" lon="1.8273788222684537"><ele>122.0</ele><time>2026-03-22T13:19:55.999Z</time></trkpt><trkpt lat="49.022451425038284" lon="1.8275841567620237"><ele>122.0</ele><time>2026-03-22T13:19:56.999Z</time></trkpt><trkpt lat="49.022438220894465" lon="1.8278045919610124"><ele>122.0</ele><time>2026-03-22T13:19:57.999Z</time></trkpt><trkpt lat="49.02242546970755" lon="1.8280180452387271"><ele>122.0</ele><time>2026-03-22T13:19:58.999Z</time></trkpt><trkpt lat="49.02241320945528" lon="1.8281922552368683"><ele>122.0</ele><time>2026-03-22T13:19:59.999Z</time></trkpt><trkpt lat="49.02239926636908" lon="1.8283475538441867"><ele>121.99999999999999</ele><time>2026-03-22T13:20:00.999Z</time></trkpt><trkpt lat="49.02239047345112" lon="1.828461344485242"><ele>121.99999999999999</ele><time>2026-03-22T13:20:01.999Z</time></trkpt><trkpt lat="49.02242200777335" lon="1.8286056005535678"><ele>122.0</ele><time>2026-03-22T13:20:03.999Z</time></trkpt><trkpt lat="49.02249344669263" lon="1.8286084915105913"><ele>122.0</ele><time>2026-03-22T13:20:04.999Z</time></trkpt><trkpt lat="49.02259820344343" lon="1.828601171309142"><ele>122.25</ele><time>2026-03-22T13:20:05.999Z</time></trkpt><trkpt lat="49.02272436736895" lon="1.8286020726184598"><ele>122.5</ele><time>2026-03-22T13:20:06.999Z</time></trkpt><trkpt lat="49.02286424420498" lon="1.8286196299053445"><ele>122.75</ele><time>2026-03-22T13:20:07.999Z</time></trkpt><trkpt lat="49.02301552325113" lon="1.8286272749459713"><ele>123.0</ele><time>2026-03-22T13:20:08.999Z</time></trkpt><trkpt lat="49.02318745193371" lon="1.8286012594378387"><ele>124.0</ele><time>2026-03-22T13:20:09.999Z</time></trkpt><trkpt lat="49.02334640981168" lon="1.8285892425443835"><ele>125.0</ele><time>2026-03-22T13:20:10.999Z</time></trkpt><trkpt lat="49.02348595061202" lon="1.8285779217639033"><ele>126.0</ele><time>2026-03-22T13:20:11.999Z</time></trkpt><trkpt lat="49.02361663891502" lon="1.8285729965775477"><ele>127.0</ele><time>2026-03-22T13:20:12.999Z</time></trkpt><trkpt lat="49.023730913560335" lon="1.8286155865727651"><ele>127.0</ele><time>2026-03-22T13:20:13.999Z</time></trkpt><trkpt lat="49.023871455595895" lon="1.8286933364996152"><ele>127.0</ele><time>2026-03-22T13:20:14.999Z</time></trkpt><trkpt lat="49.024000998462164" lon="1.8287767208775718"><ele>127.0</ele><time>2026-03-22T13:20:15.999Z</time></trkpt><trkpt lat="49.02413544069192" lon="1.8288518651544463"><ele>127.0</ele><time>2026-03-22T13:20:16.999Z</time></trkpt><trkpt lat="49.02424337940766" lon="1.8289131502682232"><ele>124.5</ele><time>2026-03-22T13:20:17.999Z</time></trkpt><trkpt lat="49.02435285773095" lon="1.8289719601366188"><ele>122.0</ele><time>2026-03-22T13:20:18.999Z</time></trkpt><trkpt lat="49.02446334362402" lon="1.8290248617396643"><ele>119.5</ele><time>2026-03-22T13:20:19.999Z</time></trkpt><trkpt lat="49.024587931492555" lon="1.8290971213279097"><ele>117.0</ele><time>2026-03-22T13:20:20.999Z</time></trkpt><trkpt lat="49.02473060164683" lon="1.8291806590256534"><ele>117.0</ele><time>2026-03-22T13:20:21.999Z</time></trkpt><trkpt lat="49.024886442454445" lon="1.8292635685796206"><ele>117.0</ele><time>2026-03-22T13:20:22.999Z</time></trkpt><trkpt lat="49.0250508376246" lon="1.8293370186688966"><ele>117.0</ele><time>2026-03-22T13:20:23.999Z</time></trkpt><trkpt lat="49.02521427478105" lon="1.8294004225546354"><ele>113.5</ele><time>2026-03-22T13:20:24.999Z</time></trkpt><trkpt lat="49.02538072371792" lon="1.8294444277769542"><ele>110.0</ele><time>2026-03-22T13:20:25.999Z</time></trkpt><trkpt lat="49.0255185818501" lon="1.8294962276814688"><ele>106.5</ele><time>2026-03-22T13:20:26.999Z</time></trkpt><trkpt lat="49.025646947641796" lon="1.829562508808527"><ele>103.0</ele><time>2026-03-22T13:20:27.999Z</time></trkpt><trkpt lat="49.02575855512657" lon="1.8296152826403265"><ele>102.0</ele><time>2026-03-22T13:20:28.999Z</time></trkpt><trkpt lat="49.02587866276873" lon="1.829612212894557"><ele>101.0</ele><time>2026-03-22T13:20:30Z</time></trkpt><trkpt lat="49.02600317056139" lon="1.8295504148987827"><ele>100.0</ele><time>2026-03-22T13:20:31Z</time></trkpt><trkpt lat="49.02613569603156" lon="1.829532067926132"><ele>99.0</ele><time>2026-03-22T13:20:32Z</time></trkpt><trkpt lat="49.026270752371175" lon="1.8295680380160044"><ele>99.0</ele><time>2026-03-22T13:20:33Z</time></trkpt><trkpt lat="49.02643247667568" lon="1.829608242090039"><ele>99.0</ele><time>2026-03-22T13:20:34Z</time></trkpt><trkpt lat="49.026591288233845" lon="1.8296281313063263"><ele>99.0</ele><time>2026-03-22T13:20:35Z</time></trkpt><trkpt lat="49.026731088786526" lon="1.8296943077451846"><ele>98.66666666666666</ele><time>2026-03-22T13:20:36Z</time></trkpt><trkpt lat="49.0268836692015" lon="1.8297794409702555"><ele>98.33333333333333</ele><time>2026-03-22T13:20:37Z</time></trkpt><trkpt lat="49.027040046549594" lon="1.8298642914170111"><ele>98.0</ele><time>2026-03-22T13:20:38Z</time></trkpt><trkpt lat="49.02718588075292" lon="1.8299195245052406"><ele>98.0</ele><time>2026-03-22T13:20:39Z</time></trkpt><trkpt lat="49.02732655657573" lon="1.829970469587912"><ele>98.0</ele><time>2026-03-22T13:20:40Z</time></trkpt><trkpt lat="49.02743744318417" lon="1.8300254100666271"><ele>98.0</ele><time>2026-03-22T13:20:41Z</time></trkpt><trkpt lat="49.02754592011911" lon="1.8300841930410052"><ele>98.0</ele><time>2026-03-22T13:20:42Z</time></trkpt><trkpt lat="49.02765329646529" lon="1.8301333194808451"><ele>96.0</ele><time>2026-03-22T13:20:43Z</time></trkpt><trkpt lat="49.02776401856488" lon="1.830179251004554"><ele>94.0</ele><time>2026-03-22T13:20:44Z</time></trkpt><trkpt lat="49.027875508289654" lon="1.8302302458187723"><ele>92.0</ele><time>2026-03-22T13:20:45Z</time></trkpt><trkpt lat="49.02797614994468" lon="1.8302832231940656"><ele>90.0</ele><time>2026-03-22T13:20:46Z</time></trkpt><trkpt lat="49.0280820072986" lon="1.8303302148688578"><ele>88.0</ele><time>2026-03-22T13:20:47Z</time></trkpt><trkpt lat="49.02818033785408" lon="1.8304003225325827"><ele>88.0</ele><time>2026-03-22T13:20:48Z</time></trkpt><trkpt lat="49.028286733650724" lon="1.8304858877861956"><ele>88.0</ele><time>2026-03-22T13:20:49Z</time></trkpt><trkpt lat="49.028401205466764" lon="1.8305311603336296"><ele>88.0</ele><time>2026-03-22T13:20:50Z</time></trkpt><trkpt lat="49.0285224767293" lon="1.8305433638327826"><ele>88.0</ele><time>2026-03-22T13:20:51Z</time></trkpt><trkpt lat="49.02864584375419" lon="1.8305553818268447"><ele>86.5</ele><time>2026-03-22T13:20:52Z</time></trkpt><trkpt lat="49.02877449505045" lon="1.8305734377218492"><ele>85.0</ele><time>2026-03-22T13:20:53Z</time></trkpt><trkpt lat="49.02890243667287" lon="1.8305956247126796"><ele>83.5</ele><time>2026-03-22T13:20:54Z</time></trkpt><trkpt lat="49.02902270384363" lon="1.8306110805247715"><ele>82.0</ele><time>2026-03-22T13:20:55Z</time></trkpt><trkpt lat="49.02914931125634" lon="1.8306404361144153"><ele>79.0</ele><time>2026-03-22T13:20:56Z</time></trkpt><trkpt lat="49.02927674401768" lon="1.8306723850392403"><ele>76.0</ele><time>2026-03-22T13:20:57Z</time></trkpt><trkpt lat="49.02939689385092" lon="1.8306975691397336"><ele>73.0</ele><time>2026-03-22T13:20:58Z</time></trkpt><trkpt lat="49.029521360245276" lon="1.8307318718355066"><ele>70.0</ele><time>2026-03-22T13:20:59Z</time></trkpt><trkpt lat="49.02963108690542" lon="1.8307624432210232"><ele>70.0</ele><time>2026-03-22T13:21:00Z</time></trkpt><trkpt lat="49.02971453904839" lon="1.8307835452442884"><ele>70.0</ele><time>2026-03-22T13:21:01Z</time></trkpt><trkpt lat="49.02977941793666" lon="1.8308035902667932"><ele>70.0</ele><time>2026-03-22T13:21:02Z</time></trkpt><trkpt lat="49.02983242869263" lon="1.8308668155535748"><ele>70.0</ele><time>2026-03-22T13:21:04Z</time></trkpt><trkpt lat="49.029773982034456" lon="1.8310125030214996"><ele>70.0</ele><time>2026-03-22T13:21:06Z</time></trkpt><trkpt lat="49.02971748560714" lon="1.8311524880734769"><ele>70.0</ele><time>2026-03-22T13:21:07Z</time></trkpt><trkpt lat="49.02964833856999" lon="1.8313222687022"><ele>68.66666666666666</ele><time>2026-03-22T13:21:08Z</time></trkpt><trkpt lat="49.02957239223907" lon="1.8315292459593464"><ele>67.33333333333333</ele><time>2026-03-22T13:21:09Z</time></trkpt><trkpt lat="49.02949626843958" lon="1.8317629673822637"><ele>66.0</ele><time>2026-03-22T13:21:10Z</time></trkpt><trkpt lat="49.02942090661572" lon="1.832031682384988"><ele>64.0</ele><time>2026-03-22T13:21:10.999Z</time></trkpt><trkpt lat="49.02934711420201" lon="1.8323155552552535"><ele>62.0</ele><time>2026-03-22T13:21:11.999Z</time></trkpt><trkpt lat="49.02926731778318" lon="1.8326083069625039"><ele>60.0</ele><time>2026-03-22T13:21:12.999Z</time></trkpt><trkpt lat="49.029178660510574" lon="1.8328980514805242"><ele>60.33333333333333</ele><time>2026-03-22T13:21:13.999Z</time></trkpt><trkpt lat="49.02911475823251" lon="1.833156915399473"><ele>60.666666666666664</ele><time>2026-03-22T13:21:14.999Z</time></trkpt><trkpt lat="49.029053796349075" lon="1.8333839616120076"><ele>61.0</ele><time>2026-03-22T13:21:15.999Z</time></trkpt><trkpt lat="49.02898728555357" lon="1.8336021899947765"><ele>61.0</ele><time>2026-03-22T13:21:16.999Z</time></trkpt><trkpt lat="49.02892098366125" lon="1.8338036684163257"><ele>61.0</ele><time>2026-03-22T13:21:17.999Z</time></trkpt><trkpt lat="49.02886283665089" lon="1.8340211051737136"><ele>61.0</ele><time>2026-03-22T13:21:18.999Z</time></trkpt><trkpt lat="49.028811394577474" lon="1.8342262127569278"><ele>61.0</ele><time>2026-03-22T13:21:19.999Z</time></trkpt><trkpt lat="49.02875813958163" lon="1.834400438808762"><ele>61.599999999999994</ele><time>2026-03-22T13:21:20.999Z</time></trkpt><trkpt lat="49.02870278220555" lon="1.834535624589651"><ele>62.199999999999996</ele><time>2026-03-22T13:21:21.999Z</time></trkpt><trkpt lat="49.02864841740294" lon="1.8346708280456285"><ele>62.800000000000004</ele><time>2026-03-22T13:21:22.999Z</time></trkpt><trkpt lat="49.028605933183535" lon="1.8348018398942498"><ele>63.400000000000006</ele><time>2026-03-22T13:21:23.999Z</time></trkpt><trkpt lat="49.028577152065346" lon="1.8349364799099799"><ele>64.0</ele><time>2026-03-22T13:21:24.999Z</time></trkpt><trkpt lat="49.02854655211355" lon="1.835057481392984"><ele>64.33333333333333</ele><time>2026-03-22T13:21:25.999Z</time></trkpt><trkpt lat="49.02852317380888" lon="1.835176348728997"><ele>64.66666666666666</ele><time>2026-03-22T13:21:26.999Z</time></trkpt><trkpt lat="49.02848359967111" lon="1.8352788394976358"><ele>65.0</ele><time>2026-03-22T13:21:27.999Z</time></trkpt><trkpt lat="49.02844233064601" lon="1.8353701100988398"><ele>65.33333333333333</ele><time>2026-03-22T13:21:28.999Z</time></trkpt><trkpt lat="49.02843560182341" lon="1.8354804112674963"><ele>65.66666666666667</ele><time>2026-03-22T13:21:29.999Z</time></trkpt><trkpt lat="49.02843508681129" lon="1.8356280224225077"><ele>66.0</ele><time>2026-03-22T13:21:30.999Z</time></trkpt><trkpt lat="49.02841348118951" lon="1.8357659154978103"><ele>66.0</ele><time>2026-03-22T13:21:31.999Z</time></trkpt><trkpt lat="49.028391656495494" lon="1.835860008186859"><ele>66.0</ele><time>2026-03-22T13:21:32.999Z</time></trkpt><trkpt lat="49.028380877641396" lon="1.8359865091848349"><ele>66.0</ele><time>2026-03-22T13:21:34.999Z</time></trkpt><trkpt lat="49.028293013903124" lon="1.8360017362656889"><ele>66.0</ele><time>2026-03-22T13:21:36.999Z</time></trkpt><trkpt lat="49.02820809048683" lon="1.8359949706952425"><ele>66.0</ele><time>2026-03-22T13:21:37.999Z</time></trkpt><trkpt lat="49.028126367462335" lon="1.8359805489461554"><ele>66.0</ele><time>2026-03-22T13:21:38.999Z</time></trkpt><trkpt lat="49.02804164428688" lon="1.836023813301802"><ele>69.33333333333333</ele><time>2026-03-22T13:21:39.999Z</time></trkpt><trkpt lat="49.02795321552462" lon="1.8360504349286313"><ele>72.66666666666667</ele><time>2026-03-22T13:21:40.999Z</time></trkpt><trkpt lat="49.02786474675967" lon="1.8360636555081573"><ele>76.0</ele><time>2026-03-22T13:21:41.999Z</time></trkpt><trkpt lat="49.02777951947203" lon="1.836074642316739"><ele>79.33333333333334</ele><time>2026-03-22T13:21:42.999Z</time></trkpt><trkpt lat="49.02769344797976" lon="1.8360965283509751"><ele>82.66666666666667</ele><time>2026-03-22T13:21:43.999Z</time></trkpt><trkpt lat="49.02760135117625" lon="1.8361265717872357"><ele>86.0</ele><time>2026-03-22T13:21:44.999Z</time></trkpt><trkpt lat="49.02753521821414" lon="1.836142234251675"><ele>89.4</ele><time>2026-03-22T13:21:45.999Z</time></trkpt><trkpt lat="49.02744390939788" lon="1.8362823195421485"><ele>92.8</ele><time>2026-03-22T13:21:47.999Z</time></trkpt><trkpt lat="49.027437407050094" lon="1.836427343708076"><ele>96.2</ele><time>2026-03-22T13:21:48.999Z</time></trkpt><trkpt lat="49.02744512173098" lon="1.8365419285519102"><ele>99.60000000000001</ele><time>2026-03-22T13:21:49.999Z</time></trkpt><trkpt lat="49.027451493015015" lon="1.8366640933349425"><ele>103.0</ele><time>2026-03-22T13:21:50.999Z</time></trkpt><trkpt lat="49.02747325543524" lon="1.8368072932305484"><ele>103.00000000000001</ele><time>2026-03-22T13:21:51.999Z</time></trkpt><trkpt lat="49.02750526581414" lon="1.836944784011514"><ele>103.0</ele><time>2026-03-22T13:21:52.999Z</time></trkpt><trkpt lat="49.0275273812452" lon="1.8370659864318941"><ele>103.0</ele><time>2026-03-22T13:21:53.999Z</time></trkpt><trkpt lat="49.02753679722168" lon="1.8371967151841713"><ele>103.0</ele><time>2026-03-22T13:21:54.999Z</time></trkpt><trkpt lat="49.027513773256096" lon="1.837306909255047"><ele>103.00000000000001</ele><time>2026-03-22T13:21:55.999Z</time></trkpt><trkpt lat="49.027462736462894" lon="1.8374374977419432"><ele>103.0</ele><time>2026-03-22T13:21:56.999Z</time></trkpt><trkpt lat="49.02741004149174" lon="1.8375441537228787"><ele>103.0</ele><time>2026-03-22T13:21:57.999Z</time></trkpt><trkpt lat="49.02735101371224" lon="1.837627514968564"><ele>103.0</ele><time>2026-03-22T13:21:58.999Z</time></trkpt><trkpt lat="49.02727892785794" lon="1.83769468580575"><ele>103.0</ele><time>2026-03-22T13:21:59.999Z</time></trkpt><trkpt lat="49.0271938828533" lon="1.8377898108284951"><ele>103.0</ele><time>2026-03-22T13:22:00.999Z</time></trkpt><trkpt lat="49.02708033862525" lon="1.8379214510441138"><ele>103.0</ele><time>2026-03-22T13:22:01.999Z</time></trkpt><trkpt lat="49.026965856165624" lon="1.8380600488044745"><ele>103.60000000000001</ele><time>2026-03-22T13:22:02.999Z</time></trkpt><trkpt lat="49.02687173203488" lon="1.83818634785253"><ele>104.2</ele><time>2026-03-22T13:22:03.999Z</time></trkpt><trkpt lat="49.026785598353406" lon="1.838302474644104"><ele>104.8</ele><time>2026-03-22T13:22:04.999Z</time></trkpt><trkpt lat="49.026700751238224" lon="1.8384083944630238"><ele>105.4</ele><time>2026-03-22T13:22:05.999Z</time></trkpt><trkpt lat="49.02662354618474" lon="1.838465365859968"><ele>106.0</ele><time>2026-03-22T13:22:06.999Z</time></trkpt><trkpt lat="49.026546732390656" lon="1.8384675981963572"><ele>106.0</ele><time>2026-03-22T13:22:07.999Z</time></trkpt><trkpt lat="49.02644936359866" lon="1.8384524102255275"><ele>106.0</ele><time>2026-03-22T13:22:08.999Z</time></trkpt><trkpt lat="49.026346468759854" lon="1.8384065950986601"><ele>106.0</ele><time>2026-03-22T13:22:09.999Z</time></trkpt><trkpt lat="49.02622737671262" lon="1.8383761167786685"><ele>106.0</ele><time>2026-03-22T13:22:10.999Z</time></trkpt><trkpt lat="49.026105416993296" lon="1.8383682418122984"><ele>106.0</ele><time>2026-03-22T13:22:11.999Z</time></trkpt><trkpt lat="49.02596386622065" lon="1.8383455480202806"><ele>107.33333333333334</ele><time>2026-03-22T13:22:12.999Z</time></trkpt><trkpt lat="49.02581189267498" lon="1.8383132204527908"><ele>108.66666666666666</ele><time>2026-03-22T13:22:13.999Z</time></trkpt><trkpt lat="49.025651485724666" lon="1.8382745789759785"><ele>110.0</ele><time>2026-03-22T13:22:14.999Z</time></trkpt><trkpt lat="49.02550273533165" lon="1.8382277020193354"><ele>110.0</ele><time>2026-03-22T13:22:15.999Z</time></trkpt><trkpt lat="49.025358753601864" lon="1.838179197686825"><ele>110.0</ele><time>2026-03-22T13:22:16.999Z</time></trkpt><trkpt lat="49.02521380311503" lon="1.8381217335912567"><ele>110.0</ele><time>2026-03-22T13:22:17.999Z</time></trkpt><trkpt lat="49.025064786376404" lon="1.8380584422172974"><ele>111.33333333333333</ele><time>2026-03-22T13:22:18.999Z</time></trkpt><trkpt lat="49.02490838681052" lon="1.8380025632023895"><ele>112.66666666666666</ele><time>2026-03-22T13:22:19.999Z</time></trkpt><trkpt lat="49.02474282366076" lon="1.837946687263085"><ele>114.0</ele><time>2026-03-22T13:22:20.999Z</time></trkpt><trkpt lat="49.0245678820976" lon="1.8378895552200645"><ele>114.0</ele><time>2026-03-22T13:22:21.999Z</time></trkpt><trkpt lat="49.02440290608627" lon="1.8378389912586843"><ele>114.0</ele><time>2026-03-22T13:22:22.999Z</time></trkpt><trkpt lat="49.0242384910827" lon="1.8377910753500302"><ele>114.0</ele><time>2026-03-22T13:22:23.999Z</time></trkpt><trkpt lat="49.02407156260931" lon="1.8377325992772513"><ele>115.0</ele><time>2026-03-22T13:22:24.999Z</time></trkpt><trkpt lat="49.023915352888636" lon="1.8376778219246728"><ele>116.0</ele><time>2026-03-22T13:22:25.999Z</time></trkpt><trkpt lat="49.02376651917042" lon="1.8376254457546601"><ele>117.0</ele><time>2026-03-22T13:22:26.999Z</time></trkpt><trkpt lat="49.02361275733234" lon="1.8375785759746492"><ele>117.19999999999999</ele><time>2026-03-22T13:22:27.999Z</time></trkpt><trkpt lat="49.02347080736421" lon="1.8375280410529626"><ele>117.39999999999999</ele><time>2026-03-22T13:22:28.999Z</time></trkpt><trkpt lat="49.02335602478842" lon="1.8374859853924173"><ele>117.60000000000001</ele><time>2026-03-22T13:22:29.999Z</time></trkpt><trkpt lat="49.0232700472466" lon="1.8374528309527394"><ele>117.80000000000001</ele><time>2026-03-22T13:22:30.999Z</time></trkpt><trkpt lat="49.02319135588908" lon="1.8374042526371037"><ele>118.0</ele><time>2026-03-22T13:22:31.999Z</time></trkpt><trkpt lat="49.02311184607282" lon="1.8373121623599005"><ele>118.25</ele><time>2026-03-22T13:22:32.999Z</time></trkpt><trkpt lat="49.023031564173316" lon="1.8372017887530905"><ele>118.5</ele><time>2026-03-22T13:22:33.999Z</time></trkpt><trkpt lat="49.022946311657854" lon="1.837055337044397"><ele>118.75</ele><time>2026-03-22T13:22:34.999Z</time></trkpt><trkpt lat="49.02283873661344" lon="1.836868367906685"><ele>119.0</ele><time>2026-03-22T13:22:36Z</time></trkpt><trkpt lat="49.02271485958635" lon="1.8366745541758878"><ele>119.0</ele><time>2026-03-22T13:22:37Z</time></trkpt><trkpt lat="49.02258427019406" lon="1.8364704455301257"><ele>119.0</ele><time>2026-03-22T13:22:38Z</time></trkpt><trkpt lat="49.022473877311505" lon="1.8362898140282096"><ele>119.0</ele><time>2026-03-22T13:22:39Z</time></trkpt><trkpt lat="49.02238224656394" lon="1.836100830017207"><ele>118.33333333333333</ele><time>2026-03-22T13:22:40Z</time></trkpt><trkpt lat="49.022294736366696" lon="1.8359135334303611"><ele>117.66666666666666</ele><time>2026-03-22T13:22:41Z</time></trkpt><trkpt lat="49.022219717540295" lon="1.835716018044581"><ele>117.0</ele><time>2026-03-22T13:22:42Z</time></trkpt><trkpt lat="49.022139273493934" lon="1.835515473189221"><ele>117.0</ele><time>2026-03-22T13:22:43Z</time></trkpt><trkpt lat="49.022054854577064" lon="1.8352995680620874"><ele>117.0</ele><time>2026-03-22T13:22:44Z</time></trkpt><trkpt lat="49.021966530896016" lon="1.8350798276540803"><ele>117.0</ele><time>2026-03-22T13:22:45Z</time></trkpt><trkpt lat="49.021884611809185" lon="1.8348807610449918"><ele>117.66666666666666</ele><time>2026-03-22T13:22:46Z</time></trkpt><trkpt lat="49.02179488632181" lon="1.8346739991930963"><ele>118.33333333333333</ele><time>2026-03-22T13:22:47Z</time></trkpt><trkpt lat="49.02170618734295" lon="1.8344647115488244"><ele>119.0</ele><time>2026-03-22T13:22:48Z</time></trkpt><trkpt lat="49.02161675584726" lon="1.834251367080644"><ele>119.0</ele><time>2026-03-22T13:22:49Z</time></trkpt><trkpt lat="49.02152779294591" lon="1.8340299142727237"><ele>119.0</ele><time>2026-03-22T13:22:50Z</time></trkpt><trkpt lat="49.02144638078936" lon="1.8338274076939367"><ele>119.0</ele><time>2026-03-22T13:22:51Z</time></trkpt><trkpt lat="49.02136703531403" lon="1.8336319813696802"><ele>118.66666666666666</ele><time>2026-03-22T13:22:52Z</time></trkpt><trkpt lat="49.02128508894252" lon="1.8334285859837616"><ele>118.33333333333334</ele><time>2026-03-22T13:22:53Z</time></trkpt><trkpt lat="49.02119820536642" lon="1.8332172633380832"><ele>118.0</ele><time>2026-03-22T13:22:54Z</time></trkpt><trkpt lat="49.02110683394454" lon="1.8330039839354872"><ele>118.0</ele><time>2026-03-22T13:22:55Z</time></trkpt><trkpt lat="49.02102435812754" lon="1.8328073741518214"><ele>118.0</ele><time>2026-03-22T13:22:56Z</time></trkpt><trkpt lat="49.02094007503341" lon="1.832596849239032"><ele>118.0</ele><time>2026-03-22T13:22:57Z</time></trkpt><trkpt lat="49.02085834565635" lon="1.832389725549751"><ele>121.0</ele><time>2026-03-22T13:22:58Z</time></trkpt><trkpt lat="49.02078032616314" lon="1.8321996294505016"><ele>124.0</ele><time>2026-03-22T13:22:59Z</time></trkpt><trkpt lat="49.02070145650619" lon="1.8320202329117272"><ele>127.0</ele><time>2026-03-22T13:23:00Z</time></trkpt><trkpt lat="49.02062500407603" lon="1.8318644483088087"><ele>130.0</ele><time>2026-03-22T13:23:01Z</time></trkpt><trkpt lat="49.02054751575326" lon="1.8317452979095965"><ele>130.0</ele><time>2026-03-22T13:23:02Z</time></trkpt><trkpt lat="49.02046629146874" lon="1.8316443182784954"><ele>130.0</ele><time>2026-03-22T13:23:03Z</time></trkpt><trkpt lat="49.020386813136255" lon="1.83156412013168"><ele>130.0</ele><time>2026-03-22T13:23:04Z</time></trkpt><trkpt lat="49.020316087144536" lon="1.8315132203162412"><ele>130.0</ele><time>2026-03-22T13:23:05Z</time></trkpt><trkpt lat="49.02022509866878" lon="1.8314224291738146"><ele>130.0</ele><time>2026-03-22T13:23:07Z</time></trkpt><trkpt lat="49.02015818622361" lon="1.831352417339619"><ele>130.0</ele><time>2026-03-22T13:23:09Z</time></trkpt><trkpt lat="49.0200911480328" lon="1.83133241281747"><ele>130.0</ele><time>2026-03-22T13:23:11Z</time></trkpt><trkpt lat="49.01989504537488" lon="1.8316559562330985"><ele>130.0</ele><time>2026-03-22T13:23:13Z</time></trkpt><trkpt lat="49.01980638708322" lon="1.8317255641882648"><ele>131.4</ele><time>2026-03-22T13:23:14.999Z</time></trkpt><trkpt lat="49.01967916241598" lon="1.83175536438401"><ele>132.8</ele><time>2026-03-22T13:23:16.999Z</time></trkpt><trkpt lat="49.01960334223535" lon="1.8317362241845525"><ele>134.2</ele><time>2026-03-22T13:23:17.999Z</time></trkpt><trkpt lat="49.01951992406776" lon="1.8317254654938302"><ele>135.6</ele><time>2026-03-22T13:23:18.999Z</time></trkpt><trkpt lat="49.01942727101172" lon="1.8317160914049304"><ele>137.0</ele><time>2026-03-22T13:23:19.999Z</time></trkpt><trkpt lat="49.01932853600365" lon="1.8317024362932528"><ele>137.0</ele><time>2026-03-22T13:23:20.999Z</time></trkpt><trkpt lat="49.01921554423964" lon="1.8316925730900664"><ele>137.0</ele><time>2026-03-22T13:23:21.999Z</time></trkpt><trkpt lat="49.01907397273841" lon="1.8316769422010044"><ele>137.0</ele><time>2026-03-22T13:23:22.999Z</time></trkpt><trkpt lat="49.0189780834439" lon="1.8316613602476968"><ele>137.0</ele><time>2026-03-22T13:23:23.999Z</time></trkpt><trkpt lat="49.0188721480354" lon="1.8316746713939476"><ele>137.79999999999998</ele><time>2026-03-22T13:23:24.999Z</time></trkpt><trkpt lat="49.01878112810819" lon="1.8316798326622716"><ele>138.6</ele><time>2026-03-22T13:23:25.999Z</time></trkpt><trkpt lat="49.01867765547013" lon="1.8316828703371237"><ele>139.39999999999998</ele><time>2026-03-22T13:23:26.999Z</time></trkpt><trkpt lat="49.01857737342744" lon="1.8316679505745006"><ele>140.2</ele><time>2026-03-22T13:23:27.999Z</time></trkpt><trkpt lat="49.01848005891545" lon="1.8316668111298946"><ele>141.0</ele><time>2026-03-22T13:23:28.999Z</time></trkpt><trkpt lat="49.01840988589931" lon="1.831667883429551"><ele>141.0</ele><time>2026-03-22T13:23:29.999Z</time></trkpt><trkpt lat="49.01833589483555" lon="1.8316598188594861"><ele>141.0</ele><time>2026-03-22T13:23:30.999Z</time></trkpt><trkpt lat="49.01826204336202" lon="1.831629468389876"><ele>141.0</ele><time>2026-03-22T13:23:31.999Z</time></trkpt><trkpt lat="49.01819164055458" lon="1.8316042675372364"><ele>141.0</ele><time>2026-03-22T13:23:32.999Z</time></trkpt><trkpt lat="49.01810875118757" lon="1.8315783614329542"><ele>141.0</ele><time>2026-03-22T13:23:33.999Z</time></trkpt><trkpt lat="49.01801354078333" lon="1.8315318027228609"><ele>141.0</ele><time>2026-03-22T13:23:34.999Z</time></trkpt><trkpt lat="49.01791140840328" lon="1.831505319494441"><ele>142.4</ele><time>2026-03-22T13:23:35.999Z</time></trkpt><trkpt lat="49.01781399953371" lon="1.8314858414458277"><ele>143.8</ele><time>2026-03-22T13:23:36.999Z</time></trkpt><trkpt lat="49.017724920304026" lon="1.831464207588545"><ele>145.20000000000002</ele><time>2026-03-22T13:23:37.999Z</time></trkpt><trkpt lat="49.017631672931394" lon="1.8314130096713093"><ele>146.6</ele><time>2026-03-22T13:23:38.999Z</time></trkpt><trkpt lat="49.01753781718831" lon="1.831336867323853"><ele>148.0</ele><time>2026-03-22T13:23:39.999Z</time></trkpt><trkpt lat="49.01744266837283" lon="1.831272461723942"><ele>148.8</ele><time>2026-03-22T13:23:40.999Z</time></trkpt><trkpt lat="49.01732347504373" lon="1.8312080630731797"><ele>149.60000000000002</ele><time>2026-03-22T13:23:41.999Z</time></trkpt><trkpt lat="49.01723062514348" lon="1.831156843555954"><ele>150.39999999999998</ele><time>2026-03-22T13:23:42.999Z</time></trkpt><trkpt lat="49.017142058345144" lon="1.8311102405085138"><ele>151.2</ele><time>2026-03-22T13:23:43.999Z</time></trkpt><trkpt lat="49.017053734076924" lon="1.8310856800808868"><ele>152.0</ele><time>2026-03-22T13:23:44.999Z</time></trkpt><trkpt lat="49.01698021430953" lon="1.8310684895277507"><ele>152.0</ele><time>2026-03-22T13:23:45.999Z</time></trkpt><trkpt lat="49.01690024245461" lon="1.8310624245704283"><ele>152.0</ele><time>2026-03-22T13:23:47.999Z</time></trkpt><trkpt lat="49.01681878670089" lon="1.831016336866312"><ele>152.0</ele><time>2026-03-22T13:23:49.999Z</time></trkpt><trkpt lat="49.01674969850033" lon="1.8309853650925605"><ele>152.0</ele><time>2026-03-22T13:23:51.999Z</time></trkpt><trkpt lat="49.01665725234536" lon="1.830920907941645"><ele>152.0</ele><time>2026-03-22T13:23:53.999Z</time></trkpt><trkpt lat="49.01655546826847" lon="1.8308857486470378"><ele>152.0</ele><time>2026-03-22T13:23:55.999Z</time></trkpt><trkpt lat="49.0164731231258" lon="1.830858112513822"><ele>151.79999999999998</ele><time>2026-03-22T13:23:57.999Z</time></trkpt><trkpt lat="49.01638393048983" lon="1.8308329646017436"><ele>151.6</ele><time>2026-03-22T13:23:59.999Z</time></trkpt><trkpt lat="49.016283102428176" lon="1.8308306893131265"><ele>151.39999999999998</ele><time>2026-03-22T13:24:01.999Z</time></trkpt><trkpt lat="49.01616790196966" lon="1.8308224325908087"><ele>151.2</ele><time>2026-03-22T13:24:03.999Z</time></trkpt><trkpt lat="49.01609547973661" lon="1.830817708350824"><ele>151.0</ele><time>2026-03-22T13:24:04.999Z</time></trkpt><trkpt lat="49.015974693203994" lon="1.8307978915295855"><ele>151.0</ele><time>2026-03-22T13:24:06.999Z</time></trkpt><trkpt lat="49.01589478244437" lon="1.830776514517215"><ele>151.0</ele><time>2026-03-22T13:24:07.999Z</time></trkpt><trkpt lat="49.015760090887554" lon="1.8307428388311917"><ele>151.0</ele><time>2026-03-22T13:24:09.999Z</time></trkpt><trkpt lat="49.015667007120065" lon="1.8307656515083577"><ele>151.0</ele><time>2026-03-22T13:24:10.999Z</time></trkpt><trkpt lat="49.01559148914325" lon="1.8307868512820142"><ele>151.0</ele><time>2026-03-22T13:24:11.999Z</time></trkpt><trkpt lat="49.015425411616" lon="1.8308182706665443"><ele>152.0</ele><time>2026-03-22T13:24:13.999Z</time></trkpt><trkpt lat="49.01531582950689" lon="1.8308382492947624"><ele>153.0</ele><time>2026-03-22T13:24:14.999Z</time></trkpt><trkpt lat="49.015215829461944" lon="1.8308383653961533"><ele>154.0</ele><time>2026-03-22T13:24:15.999Z</time></trkpt><trkpt lat="49.01514368215891" lon="1.830784849310445"><ele>155.0</ele><time>2026-03-22T13:24:16.999Z</time></trkpt><trkpt lat="49.01505119324485" lon="1.8307396095571453"><ele>156.0</ele><time>2026-03-22T13:24:17.999Z</time></trkpt><trkpt lat="49.01493002121712" lon="1.8307248802106049"><ele>156.25</ele><time>2026-03-22T13:24:18.999Z</time></trkpt><trkpt lat="49.01479065799668" lon="1.830710292144557"><ele>156.5</ele><time>2026-03-22T13:24:19.999Z</time></trkpt><trkpt lat="49.014670780943426" lon="1.8306218173843793"><ele>156.75</ele><time>2026-03-22T13:24:20.999Z</time></trkpt><trkpt lat="49.01454517193326" lon="1.8305141466045634"><ele>157.0</ele><time>2026-03-22T13:24:21.999Z</time></trkpt><trkpt lat="49.014430025276035" lon="1.8303930720325414"><ele>157.0</ele><time>2026-03-22T13:24:22.999Z</time></trkpt><trkpt lat="49.014332676455695" lon="1.8302868008323663"><ele>157.0</ele><time>2026-03-22T13:24:23.999Z</time></trkpt><trkpt lat="49.014262951713356" lon="1.8301985088606199"><ele>157.0</ele><time>2026-03-22T13:24:24.999Z</time></trkpt><trkpt lat="49.014209557956" lon="1.8301061334865099"><ele>157.0</ele><time>2026-03-22T13:24:25.999Z</time></trkpt><trkpt lat="49.01415786187678" lon="1.8300245974968001"><ele>157.0</ele><time>2026-03-22T13:24:26.999Z</time></trkpt><trkpt lat="49.01402672135521" lon="1.8300743825040628"><ele>159.75</ele><time>2026-03-22T13:24:28.999Z</time></trkpt><trkpt lat="49.01390905744333" lon="1.8301211209010557"><ele>162.5</ele><time>2026-03-22T13:24:29.999Z</time></trkpt><trkpt lat="49.01379491079143" lon="1.8301978506248977"><ele>165.25</ele><time>2026-03-22T13:24:30.999Z</time></trkpt><trkpt lat="49.013675967120506" lon="1.8302808703742237"><ele>168.0</ele><time>2026-03-22T13:24:31.999Z</time></trkpt><trkpt lat="49.013539768845256" lon="1.830377395516785"><ele>168.0</ele><time>2026-03-22T13:24:32.999Z</time></trkpt><trkpt lat="49.013392386297866" lon="1.8304818490300112"><ele>168.0</ele><time>2026-03-22T13:24:33.999Z</time></trkpt><trkpt lat="49.01324371720902" lon="1.8305802937150095"><ele>168.0</ele><time>2026-03-22T13:24:34.999Z</time></trkpt><trkpt lat="49.01308186767543" lon="1.830673585860512"><ele>171.5</ele><time>2026-03-22T13:24:35.999Z</time></trkpt><trkpt lat="49.01294504785504" lon="1.8307422391123864"><ele>175.0</ele><time>2026-03-22T13:24:36.999Z</time></trkpt><trkpt lat="49.0128179604124" lon="1.8308048831502484"><ele>178.5</ele><time>2026-03-22T13:24:37.999Z</time></trkpt><trkpt lat="49.012697820580875" lon="1.8308436380440372"><ele>182.0</ele><time>2026-03-22T13:24:38.999Z</time></trkpt><trkpt lat="49.012567871751344" lon="1.8309123145990764"><ele>180.6</ele><time>2026-03-22T13:24:39.999Z</time></trkpt><trkpt lat="49.01242863505318" lon="1.8309899408773085"><ele>179.2</ele><time>2026-03-22T13:24:40.999Z</time></trkpt><trkpt lat="49.01231142243062" lon="1.8310917670153202"><ele>177.8</ele><time>2026-03-22T13:24:42Z</time></trkpt><trkpt lat="49.0122304523071" lon="1.8311666227657566"><ele>176.4</ele><time>2026-03-22T13:24:43Z</time></trkpt><trkpt lat="49.012176758496956" lon="1.8312210332112502"><ele>175.0</ele><time>2026-03-22T13:24:44Z</time></trkpt><trkpt lat="49.012120818498154" lon="1.8311111620629967"><ele>175.0</ele><time>2026-03-22T13:24:48Z</time></trkpt><trkpt lat="49.01213697373536" lon="1.830993574894486"><ele>175.0</ele><time>2026-03-22T13:24:49Z</time></trkpt><trkpt lat="49.01212784583531" lon="1.8308160024656912"><ele>175.0</ele><time>2026-03-22T13:24:50Z</time></trkpt><trkpt lat="49.01210363866691" lon="1.830636744764891"><ele>175.0</ele><time>2026-03-22T13:24:51Z</time></trkpt><trkpt lat="49.01207773254671" lon="1.8304420472893383"><ele>175.0</ele><time>2026-03-22T13:24:52Z</time></trkpt><trkpt lat="49.01207511799198" lon="1.830243923542206"><ele>177.25</ele><time>2026-03-22T13:24:53Z</time></trkpt><trkpt lat="49.01209658780634" lon="1.8300789707834237"><ele>179.5</ele><time>2026-03-22T13:24:54Z</time></trkpt><trkpt lat="49.01214190709682" lon="1.8298992458025742"><ele>181.75</ele><time>2026-03-22T13:24:55Z</time></trkpt><trkpt lat="49.012191839931944" lon="1.8297120373404316"><ele>184.0</ele><time>2026-03-22T13:24:56Z</time></trkpt><trkpt lat="49.012230519745685" lon="1.8294939313063885"><ele>184.0</ele><time>2026-03-22T13:24:57Z</time></trkpt><trkpt lat="49.01227163297185" lon="1.8293173996412522"><ele>184.0</ele><time>2026-03-22T13:24:58Z</time></trkpt><trkpt lat="49.012298634710504" lon="1.8291264166465504"><ele>184.0</ele><time>2026-03-22T13:24:59Z</time></trkpt><trkpt lat="49.01233593155128" lon="1.8289076610422892"><ele>184.0</ele><time>2026-03-22T13:25:00Z</time></trkpt><trkpt lat="49.01239151443882" lon="1.8286804054200783"><ele>184.25</ele><time>2026-03-22T13:25:01Z</time></trkpt><trkpt lat="49.012453567099875" lon="1.8284436891304086"><ele>184.5</ele><time>2026-03-22T13:25:02Z</time></trkpt><trkpt lat="49.01249969724683" lon="1.8282573237536768"><ele>184.75</ele><time>2026-03-22T13:25:03Z</time></trkpt><trkpt lat="49.01252802152657" lon="1.8281154102814328"><ele>185.0</ele><time>2026-03-22T13:25:04Z</time></trkpt><trkpt lat="49.01255665491575" lon="1.828003983819604"><ele>185.0</ele><time>2026-03-22T13:25:05Z</time></trkpt><trkpt lat="49.01259034805338" lon="1.8279156082314187"><ele>185.0</ele><time>2026-03-22T13:25:06Z</time></trkpt><trkpt lat="49.01262965138166" lon="1.8278113034699763"><ele>185.0</ele><time>2026-03-22T13:25:07Z</time></trkpt><trkpt lat="49.012660732554245" lon="1.8276712498316645"><ele>185.0</ele><time>2026-03-22T13:25:08Z</time></trkpt><trkpt lat="49.012690250489506" lon="1.8275065048707673"><ele>185.0</ele><time>2026-03-22T13:25:09Z</time></trkpt><trkpt lat="49.01271533869164" lon="1.8273627656336369"><ele>185.0</ele><time>2026-03-22T13:25:10Z</time></trkpt><trkpt lat="49.01273694583725" lon="1.8272106860320438"><ele>185.0</ele><time>2026-03-22T13:25:11Z</time></trkpt><trkpt lat="49.01275994537814" lon="1.8270880257299664"><ele>185.0</ele><time>2026-03-22T13:25:12Z</time></trkpt><trkpt lat="49.01278405561659" lon="1.826951567033229"><ele>185.0</ele><time>2026-03-22T13:25:13Z</time></trkpt><trkpt lat="49.01279815339407" lon="1.8268481946440798"><ele>185.0</ele><time>2026-03-22T13:25:14Z</time></trkpt><trkpt lat="49.0128202564067" lon="1.8267104583369522"><ele>185.0</ele><time>2026-03-22T13:25:16Z</time></trkpt><trkpt lat="49.012829675077015" lon="1.8265645200712646"><ele>185.25</ele><time>2026-03-22T13:25:18Z</time></trkpt><trkpt lat="49.01284820781273" lon="1.826418359276167"><ele>185.5</ele><time>2026-03-22T13:25:20Z</time></trkpt><trkpt lat="49.012850791205594" lon="1.8262896362650727"><ele>185.75</ele><time>2026-03-22T13:25:24Z</time></trkpt><trkpt lat="49.01287259175055" lon="1.8261187728858799"><ele>186.0</ele><time>2026-03-22T13:25:26.999Z</time></trkpt><trkpt lat="49.012862746532576" lon="1.8258405221420144"><ele>186.0</ele><time>2026-03-22T13:25:28.999Z</time></trkpt><trkpt lat="49.01283918440743" lon="1.8257106199497093"><ele>186.0</ele><time>2026-03-22T13:25:29.999Z</time></trkpt><trkpt lat="49.01279886553896" lon="1.8256024923624568"><ele>186.0</ele><time>2026-03-22T13:25:30.999Z</time></trkpt><trkpt lat="49.0127477644791" lon="1.8255255769667114"><ele>186.0</ele><time>2026-03-22T13:25:31.999Z</time></trkpt><trkpt lat="49.012690391593985" lon="1.8254454790611896"><ele>186.0</ele><time>2026-03-22T13:25:32.999Z</time></trkpt><trkpt lat="49.01262285836939" lon="1.8253376371684624"><ele>186.0</ele><time>2026-03-22T13:25:33.999Z</time></trkpt><trkpt lat="49.012539462574836" lon="1.8252129648908408"><ele>185.8</ele><time>2026-03-22T13:25:34.999Z</time></trkpt><trkpt lat="49.0124595026018" lon="1.8251082551503375"><ele>185.60000000000002</ele><time>2026-03-22T13:25:35.999Z</time></trkpt><trkpt lat="49.01238470233068" lon="1.8250049123667649"><ele>185.4</ele><time>2026-03-22T13:25:36.999Z</time></trkpt><trkpt lat="49.01230893403962" lon="1.8249051955991404"><ele>185.2</ele><time>2026-03-22T13:25:37.999Z</time></trkpt><trkpt lat="49.012244309040526" lon="1.82479513433467"><ele>185.0</ele><time>2026-03-22T13:25:38.999Z</time></trkpt><trkpt lat="49.01223937607457" lon="1.8246912297111904"><ele>185.0</ele><time>2026-03-22T13:25:39.999Z</time></trkpt><trkpt lat="49.012231871282104" lon="1.824547477481379"><ele>185.0</ele><time>2026-03-22T13:25:40.999Z</time></trkpt><trkpt lat="49.01222196074637" lon="1.8244369642007774"><ele>185.0</ele><time>2026-03-22T13:25:41.999Z</time></trkpt><trkpt lat="49.01221544992278" lon="1.8243159076848225"><ele>185.0</ele><time>2026-03-22T13:25:42.999Z</time></trkpt><trkpt lat="49.012200844066896" lon="1.8242222382336002"><ele>185.0</ele><time>2026-03-22T13:25:43.999Z</time></trkpt><trkpt lat="49.01218000096373" lon="1.8240774873550556"><ele>185.0</ele><time>2026-03-22T13:25:44.999Z</time></trkpt><trkpt lat="49.01216006889093" lon="1.8238865725211517"><ele>185.0</ele><time>2026-03-22T13:25:45.999Z</time></trkpt><trkpt lat="49.01214872366516" lon="1.823702812488677"><ele>185.0</ele><time>2026-03-22T13:25:46.999Z</time></trkpt><trkpt lat="49.0121329192642" lon="1.8235005480388753"><ele>185.0</ele><time>2026-03-22T13:25:47.999Z</time></trkpt><trkpt lat="49.01209508505313" lon="1.823360375398675"><ele>185.0</ele><time>2026-03-22T13:25:48.999Z</time></trkpt><trkpt lat="49.012058135020006" lon="1.8232659716581858"><ele>185.0</ele><time>2026-03-22T13:25:49.999Z</time></trkpt><trkpt lat="49.01203750941093" lon="1.823154511105119"><ele>185.0</ele><time>2026-03-22T13:25:50.999Z</time></trkpt><trkpt lat="49.01202917003694" lon="1.8230269899394465"><ele>185.0</ele><time>2026-03-22T13:25:51.999Z</time></trkpt><trkpt lat="49.01202336271145" lon="1.8229220034903566"><ele>185.0</ele><time>2026-03-22T13:25:52.999Z</time></trkpt><trkpt lat="49.01195955659135" lon="1.8228186889856102"><ele>185.0</ele><time>2026-03-22T13:25:55.999Z</time></trkpt><trkpt lat="49.0119243315324" lon="1.8227030682606522"><ele>185.0</ele><time>2026-03-22T13:25:58.999Z</time></trkpt><trkpt lat="49.01193338575425" lon="1.8225497468502394"><ele>185.0</ele><time>2026-03-22T13:26:01.999Z</time></trkpt><trkpt lat="49.011891093993526" lon="1.8223064905732873"><ele>184.83333333333331</ele><time>2026-03-22T13:26:02.999Z</time></trkpt><trkpt lat="49.01188921838209" lon="1.8221345151302253"><ele>184.66666666666666</ele><time>2026-03-22T13:26:04.999Z</time></trkpt><trkpt lat="49.011886022790016" lon="1.8220384782471934"><ele>184.5</ele><time>2026-03-22T13:26:05.999Z</time></trkpt><trkpt lat="49.01188685358694" lon="1.8219296525263826"><ele>184.33333333333334</ele><time>2026-03-22T13:26:06.999Z</time></trkpt><trkpt lat="49.01187548363265" lon="1.8218198224023987"><ele>184.16666666666669</ele><time>2026-03-22T13:26:07.999Z</time></trkpt><trkpt lat="49.01186420276183" lon="1.8217217266767596"><ele>184.0</ele><time>2026-03-22T13:26:08.999Z</time></trkpt><trkpt lat="49.0118634574887" lon="1.8215733125085611"><ele>184.0</ele><time>2026-03-22T13:26:10.999Z</time></trkpt><trkpt lat="49.01186980994155" lon="1.821412454749457"><ele>184.0</ele><time>2026-03-22T13:26:13.999Z</time></trkpt><trkpt lat="49.01187188512392" lon="1.8212055323633412"><ele>184.0</ele><time>2026-03-22T13:26:15.999Z</time></trkpt><trkpt lat="49.011852803397844" lon="1.8210856423752606"><ele>184.0</ele><time>2026-03-22T13:26:16.999Z</time></trkpt><trkpt lat="49.011830725646774" lon="1.8209746925983215"><ele>184.0</ele><time>2026-03-22T13:26:17.999Z</time></trkpt><trkpt lat="49.01180450802226" lon="1.8208700394467427"><ele>184.39999999999998</ele><time>2026-03-22T13:26:18.999Z</time></trkpt><trkpt lat="49.01181854250709" lon="1.820734946601017"><ele>184.8</ele><time>2026-03-22T13:26:20.999Z</time></trkpt><trkpt lat="49.01185458224614" lon="1.8205786217675592"><ele>185.2</ele><time>2026-03-22T13:26:24Z</time></trkpt><trkpt lat="49.011882416476475" lon="1.8204796180522382"><ele>185.60000000000002</ele><time>2026-03-22T13:26:25Z</time></trkpt><trkpt lat="49.011861046568" lon="1.8203659294171477"><ele>186.0</ele><time>2026-03-22T13:26:26Z</time></trkpt><trkpt lat="49.01182983159708" lon="1.8201675739687306"><ele>186.5</ele><time>2026-03-22T13:26:28Z</time></trkpt><trkpt lat="49.01185987556578" lon="1.8200465440904765"><ele>187.0</ele><time>2026-03-22T13:26:29Z</time></trkpt><trkpt lat="49.01187870354743" lon="1.8198755953615382"><ele>187.5</ele><time>2026-03-22T13:26:30Z</time></trkpt><trkpt lat="49.011872529051566" lon="1.8196327917703028"><ele>188.0</ele><time>2026-03-22T13:26:31Z</time></trkpt><trkpt lat="49.01188536808649" lon="1.8193965121177225"><ele>188.66666666666666</ele><time>2026-03-22T13:26:32Z</time></trkpt><trkpt lat="49.01190964743779" lon="1.8191600598317323"><ele>189.33333333333334</ele><time>2026-03-22T13:26:33Z</time></trkpt><trkpt lat="49.01194534217708" lon="1.8189366203507003"><ele>190.0</ele><time>2026-03-22T13:26:34Z</time></trkpt><trkpt lat="49.0119912365648" lon="1.8187300744357102"><ele>190.0</ele><time>2026-03-22T13:26:35Z</time></trkpt><trkpt lat="49.01205050250943" lon="1.8184942812905907"><ele>190.0</ele><time>2026-03-22T13:26:36Z</time></trkpt><trkpt lat="49.0121173150143" lon="1.8182435397270702"><ele>190.0</ele><time>2026-03-22T13:26:37Z</time></trkpt><trkpt lat="49.012179643039985" lon="1.8179788510572246"><ele>191.0</ele><time>2026-03-22T13:26:38Z</time></trkpt><trkpt lat="49.01221200502289" lon="1.817785010504523"><ele>192.0</ele><time>2026-03-22T13:26:39Z</time></trkpt><trkpt lat="49.01224030701557" lon="1.817624401553599"><ele>193.0</ele><time>2026-03-22T13:26:40Z</time></trkpt><trkpt lat="49.01227503085934" lon="1.8174052192696724"><ele>194.0</ele><time>2026-03-22T13:26:41Z</time></trkpt><trkpt lat="49.01232028689483" lon="1.817161505426814"><ele>194.2</ele><time>2026-03-22T13:26:42Z</time></trkpt><trkpt lat="49.012345966039845" lon="1.8169515046900375"><ele>194.39999999999998</ele><time>2026-03-22T13:26:43Z</time></trkpt><trkpt lat="49.01234487827407" lon="1.8167956408228947"><ele>194.6</ele><time>2026-03-22T13:26:44Z</time></trkpt><trkpt lat="49.01235395143522" lon="1.816683940206995"><ele>194.8</ele><time>2026-03-22T13:26:45Z</time></trkpt><trkpt lat="49.01234587348311" lon="1.8165495116527852"><ele>195.0</ele><time>2026-03-22T13:26:47Z</time></trkpt><trkpt lat="49.01234712867276" lon="1.8164524561562159"><ele>195.0</ele><time>2026-03-22T13:26:50.001Z</time></trkpt><trkpt lat="49.012316254688216" lon="1.8163284183775434"><ele>195.0</ele><time>2026-03-22T13:26:52.001Z</time></trkpt><trkpt lat="49.01231197709481" lon="1.8162120112264066"><ele>195.0</ele><time>2026-03-22T13:26:53.001Z</time></trkpt><trkpt lat="49.01231926149486" lon="1.8161038564789167"><ele>195.0</ele><time>2026-03-22T13:26:55.001Z</time></trkpt><trkpt lat="49.012332225070175" lon="1.8159940528869352"><ele>195.0</ele><time>2026-03-22T13:26:57.001Z</time></trkpt><trkpt lat="49.01233770887843" lon="1.8158524594244276"><ele>195.0</ele><time>2026-03-22T13:26:58.001Z</time></trkpt><trkpt lat="49.0123622823835" lon="1.815697561395704"><ele>194.4</ele><time>2026-03-22T13:26:59.001Z</time></trkpt><trkpt lat="49.01237912375917" lon="1.8155379971240337"><ele>193.8</ele><time>2026-03-22T13:27:00.001Z</time></trkpt><trkpt lat="49.012428375981976" lon="1.8153948785938352"><ele>193.2</ele><time>2026-03-22T13:27:01.001Z</time></trkpt><trkpt lat="49.01247272427284" lon="1.8152613747270028"><ele>192.6</ele><time>2026-03-22T13:27:02.001Z</time></trkpt><trkpt lat="49.01248951040298" lon="1.815129151859489"><ele>192.0</ele><time>2026-03-22T13:27:03.001Z</time></trkpt><trkpt lat="49.01250489805628" lon="1.8149868533042361"><ele>192.0</ele><time>2026-03-22T13:27:04.001Z</time></trkpt><trkpt lat="49.01251507247172" lon="1.814852592218846"><ele>192.0</ele><time>2026-03-22T13:27:05.001Z</time></trkpt><trkpt lat="49.01253837349992" lon="1.8147412228566981"><ele>192.0</ele><time>2026-03-22T13:27:06.001Z</time></trkpt><trkpt lat="49.01255201221209" lon="1.8145821154698774"><ele>192.0</ele><time>2026-03-22T13:27:08.001Z</time></trkpt><trkpt lat="49.01258941356165" lon="1.8144346404309146"><ele>192.0</ele><time>2026-03-22T13:27:10.001Z</time></trkpt><trkpt lat="49.01260566775707" lon="1.8143360638118686"><ele>192.0</ele><time>2026-03-22T13:27:11.001Z</time></trkpt><trkpt lat="49.01261329338271" lon="1.814202648697291"><ele>191.75</ele><time>2026-03-22T13:27:14.001Z</time></trkpt><trkpt lat="49.01276699080895" lon="1.8139752303369794"><ele>191.5</ele><time>2026-03-22T13:27:15.001Z</time></trkpt><trkpt lat="49.01279191716386" lon="1.8138707458751482"><ele>191.25</ele><time>2026-03-22T13:27:16.001Z</time></trkpt><trkpt lat="49.012825060989115" lon="1.8137305069275333"><ele>191.0</ele><time>2026-03-22T13:27:17.001Z</time></trkpt><trkpt lat="49.012858520089814" lon="1.8135596585385594"><ele>191.0</ele><time>2026-03-22T13:27:18Z</time></trkpt><trkpt lat="49.01289196207587" lon="1.8133900417124986"><ele>191.0</ele><time>2026-03-22T13:27:19Z</time></trkpt><trkpt lat="49.01292542455078" lon="1.813233949232567"><ele>191.0</ele><time>2026-03-22T13:27:20Z</time></trkpt><trkpt lat="49.01295007447221" lon="1.8130680638540242"><ele>191.0</ele><time>2026-03-22T13:27:21Z</time></trkpt><trkpt lat="49.01297370785811" lon="1.812910116236103"><ele>191.0</ele><time>2026-03-22T13:27:22Z</time></trkpt><trkpt lat="49.0129981375321" lon="1.8127489238685113"><ele>190.25</ele><time>2026-03-22T13:27:23Z</time></trkpt><trkpt lat="49.01302758601526" lon="1.8125617494547788"><ele>189.5</ele><time>2026-03-22T13:27:24Z</time></trkpt><trkpt lat="49.01305852874333" lon="1.8123756185106568"><ele>188.75</ele><time>2026-03-22T13:27:25Z</time></trkpt><trkpt lat="49.013092741188736" lon="1.8121819003771125"><ele>188.0</ele><time>2026-03-22T13:27:26Z</time></trkpt><trkpt lat="49.01311691705509" lon="1.8120010975033272"><ele>187.25</ele><time>2026-03-22T13:27:27Z</time></trkpt><trkpt lat="49.01314129849235" lon="1.8118146191761682"><ele>186.5</ele><time>2026-03-22T13:27:28Z</time></trkpt><trkpt lat="49.01316987259131" lon="1.8115927363993736"><ele>185.75</ele><time>2026-03-22T13:27:29Z</time></trkpt><trkpt lat="49.01320070423141" lon="1.8113917064038858"><ele>185.0</ele><time>2026-03-22T13:27:30Z</time></trkpt><trkpt lat="49.01322933384275" lon="1.81121077228969"><ele>185.0</ele><time>2026-03-22T13:27:31Z</time></trkpt><trkpt lat="49.01326638660865" lon="1.8110140230431944"><ele>185.0</ele><time>2026-03-22T13:27:32Z</time></trkpt><trkpt lat="49.01331035729209" lon="1.810809622827348"><ele>185.0</ele><time>2026-03-22T13:27:33Z</time></trkpt><trkpt lat="49.01331119393825" lon="1.8104375971675728"><ele>186.2</ele><time>2026-03-22T13:27:34Z</time></trkpt><trkpt lat="49.01334790151666" lon="1.8102581179485346"><ele>187.4</ele><time>2026-03-22T13:27:35Z</time></trkpt><trkpt lat="49.01337194140629" lon="1.8101090087274618"><ele>188.60000000000002</ele><time>2026-03-22T13:27:36Z</time></trkpt><trkpt lat="49.013401835671154" lon="1.8099961601495975"><ele>189.8</ele><time>2026-03-22T13:27:37Z</time></trkpt><trkpt lat="49.01340968711402" lon="1.8098871794293858"><ele>191.0</ele><time>2026-03-22T13:27:38Z</time></trkpt><trkpt lat="49.013426284799266" lon="1.809767397886636"><ele>191.0</ele><time>2026-03-22T13:27:39Z</time></trkpt><trkpt lat="49.01346128987066" lon="1.8096228175266256"><ele>191.0</ele><time>2026-03-22T13:27:40Z</time></trkpt><trkpt lat="49.01349578370797" lon="1.8094309256359722"><ele>191.0</ele><time>2026-03-22T13:27:41Z</time></trkpt><trkpt lat="49.013535015671366" lon="1.8092500524264523"><ele>191.0</ele><time>2026-03-22T13:27:42Z</time></trkpt><trkpt lat="49.01358169958595" lon="1.809051084520822"><ele>191.0</ele><time>2026-03-22T13:27:43Z</time></trkpt><trkpt lat="49.01363930680388" lon="1.8088456140968987"><ele>191.0</ele><time>2026-03-22T13:27:44Z</time></trkpt><trkpt lat="49.01370250486592" lon="1.8086311357830234"><ele>191.0</ele><time>2026-03-22T13:27:45Z</time></trkpt><trkpt lat="49.013779069097275" lon="1.8083871960591302"><ele>191.0</ele><time>2026-03-22T13:27:46Z</time></trkpt><trkpt lat="49.01385548394692" lon="1.8081345551889028"><ele>191.0</ele><time>2026-03-22T13:27:47Z</time></trkpt><trkpt lat="49.013935335015354" lon="1.8078809536512626"><ele>191.0</ele><time>2026-03-22T13:27:48Z</time></trkpt><trkpt lat="49.013998709667035" lon="1.8076669838164683"><ele>192.0</ele><time>2026-03-22T13:27:49Z</time></trkpt><trkpt lat="49.01408430019962" lon="1.8074599229781685"><ele>193.0</ele><time>2026-03-22T13:27:50Z</time></trkpt><trkpt lat="49.014175553083184" lon="1.8072533507667883"><ele>194.0</ele><time>2026-03-22T13:27:51Z</time></trkpt><trkpt lat="49.01425265969387" lon="1.8070280270041998"><ele>194.0</ele><time>2026-03-22T13:27:52Z</time></trkpt><trkpt lat="49.014331127084" lon="1.8068415154294009"><ele>194.0</ele><time>2026-03-22T13:27:53Z</time></trkpt><trkpt lat="49.01440957107556" lon="1.806661469991397"><ele>194.0</ele><time>2026-03-22T13:27:54Z</time></trkpt><trkpt lat="49.01450940492878" lon="1.8064468301586931"><ele>194.5</ele><time>2026-03-22T13:27:55Z</time></trkpt><trkpt lat="49.014619548541965" lon="1.8062374177476341"><ele>195.0</ele><time>2026-03-22T13:27:56Z</time></trkpt><trkpt lat="49.014723133099466" lon="1.8060659370195564"><ele>195.5</ele><time>2026-03-22T13:27:57Z</time></trkpt><trkpt lat="49.01479963606457" lon="1.8059262682035977"><ele>196.0</ele><time>2026-03-22T13:27:58Z</time></trkpt><trkpt lat="49.014874635459385" lon="1.8057919728901006"><ele>196.33333333333331</ele><time>2026-03-22T13:27:59Z</time></trkpt><trkpt lat="49.01492927834937" lon="1.8056772276197892"><ele>196.66666666666666</ele><time>2026-03-22T13:28:00Z</time></trkpt><trkpt lat="49.014978084523314" lon="1.8055928211201784"><ele>197.0</ele><time>2026-03-22T13:28:01Z</time></trkpt><trkpt lat="49.01505741062432" lon="1.8054905049659022"><ele>197.33333333333331</ele><time>2026-03-22T13:28:03Z</time></trkpt><trkpt lat="49.01511582192263" lon="1.8053957547462998"><ele>197.66666666666666</ele><time>2026-03-22T13:28:04Z</time></trkpt><trkpt lat="49.01516332289595" lon="1.805295096814277"><ele>198.0</ele><time>2026-03-22T13:28:05Z</time></trkpt><trkpt lat="49.015208989164144" lon="1.80522010539023"><ele>197.33333333333334</ele><time>2026-03-22T13:28:06Z</time></trkpt><trkpt lat="49.01525268995013" lon="1.8051148073360166"><ele>196.66666666666669</ele><time>2026-03-22T13:28:07Z</time></trkpt><trkpt lat="49.015272819489375" lon="1.8049903349484624"><ele>196.0</ele><time>2026-03-22T13:28:08Z</time></trkpt><trkpt lat="49.015293932486884" lon="1.8048945652673851"><ele>195.33333333333334</ele><time>2026-03-22T13:28:09Z</time></trkpt><trkpt lat="49.01532548945288" lon="1.8048094610111554"><ele>194.66666666666669</ele><time>2026-03-22T13:28:10Z</time></trkpt><trkpt lat="49.015364128864675" lon="1.8047317685510451"><ele>194.0</ele><time>2026-03-22T13:28:11Z</time></trkpt><trkpt lat="49.0154245413929" lon="1.80461351300176"><ele>194.0</ele><time>2026-03-22T13:28:13Z</time></trkpt><trkpt lat="49.01547168671354" lon="1.8044829563968845"><ele>194.0</ele><time>2026-03-22T13:28:15Z</time></trkpt><trkpt lat="49.015533453352965" lon="1.8043555233488482"><ele>194.0</ele><time>2026-03-22T13:28:17Z</time></trkpt><trkpt lat="49.015570971039786" lon="1.8042618092760947"><ele>194.0</ele><time>2026-03-22T13:28:20Z</time></trkpt><trkpt lat="49.01561549395834" lon="1.804159926350837"><ele>194.0</ele><time>2026-03-22T13:28:21Z</time></trkpt><trkpt lat="49.01569201111534" lon="1.8040540463445633"><ele>191.75</ele><time>2026-03-22T13:28:23Z</time></trkpt><trkpt lat="49.01587379570469" lon="1.8038822787242572"><ele>189.5</ele><time>2026-03-22T13:28:25Z</time></trkpt><trkpt lat="49.015966275386255" lon="1.803787008173697"><ele>187.25</ele><time>2026-03-22T13:28:27Z</time></trkpt><trkpt lat="49.01605014368874" lon="1.803678694388246"><ele>185.0</ele><time>2026-03-22T13:28:29Z</time></trkpt><trkpt lat="49.01613918273243" lon="1.8035746493038105"><ele>187.0</ele><time>2026-03-22T13:28:31Z</time></trkpt><trkpt lat="49.01622324412219" lon="1.803490793059292"><ele>189.0</ele><time>2026-03-22T13:28:33Z</time></trkpt><trkpt lat="49.01631182432316" lon="1.8033907949886752"><ele>191.0</ele><time>2026-03-22T13:28:35Z</time></trkpt><trkpt lat="49.01639798472845" lon="1.8032669670946202"><ele>193.0</ele><time>2026-03-22T13:28:37Z</time></trkpt><trkpt lat="49.016444690201986" lon="1.8032019679634084"><ele>195.0</ele><time>2026-03-22T13:28:38Z</time></trkpt><trkpt lat="49.01651084281948" lon="1.8030829955488865"><ele>195.0</ele><time>2026-03-22T13:28:40Z</time></trkpt><trkpt lat="49.0165807738564" lon="1.8029669455823174"><ele>195.0</ele><time>2026-03-22T13:28:42Z</time></trkpt><trkpt lat="49.01660906328646" lon="1.8028206938280322"><ele>195.0</ele><time>2026-03-22T13:28:44Z</time></trkpt><trkpt lat="49.0166338779595" lon="1.8027299849984688"><ele>195.0</ele><time>2026-03-22T13:28:45Z</time></trkpt><trkpt lat="49.01667062119731" lon="1.8026393362252147"><ele>195.0</ele><time>2026-03-22T13:28:46Z</time></trkpt><trkpt lat="49.0167642797911" lon="1.802496300442362"><ele>194.0</ele><time>2026-03-22T13:28:48Z</time></trkpt><trkpt lat="49.016818504351384" lon="1.8023798088668908"><ele>193.0</ele><time>2026-03-22T13:28:49Z</time></trkpt><trkpt lat="49.016880629095354" lon="1.8022346364636075"><ele>192.0</ele><time>2026-03-22T13:28:50Z</time></trkpt><trkpt lat="49.016967956422235" lon="1.802088916775108"><ele>191.0</ele><time>2026-03-22T13:28:51Z</time></trkpt><trkpt lat="49.01703833660393" lon="1.8019731107412633"><ele>190.0</ele><time>2026-03-22T13:28:52Z</time></trkpt><trkpt lat="49.01711356374683" lon="1.801896162493132"><ele>189.83333333333334</ele><time>2026-03-22T13:28:53Z</time></trkpt><trkpt lat="49.01718097356968" lon="1.8018262104255707"><ele>189.66666666666669</ele><time>2026-03-22T13:28:54.001Z</time></trkpt><trkpt lat="49.01723410313499" lon="1.801773855360131"><ele>189.5</ele><time>2026-03-22T13:28:55.001Z</time></trkpt><trkpt lat="49.01730235616163" lon="1.8017150099825687"><ele>189.33333333333334</ele><time>2026-03-22T13:28:57.001Z</time></trkpt><trkpt lat="49.017362299041594" lon="1.8016100947780378"><ele>189.16666666666666</ele><time>2026-03-22T13:29:00.001Z</time></trkpt><trkpt lat="49.01743703494305" lon="1.8014931441147548"><ele>189.0</ele><time>2026-03-22T13:29:02.001Z</time></trkpt><trkpt lat="49.01748669683177" lon="1.8014243273117923"><ele>188.6</ele><time>2026-03-22T13:29:07.001Z</time></trkpt><trkpt lat="49.017549817496075" lon="1.801345352182288"><ele>188.2</ele><time>2026-03-22T13:29:10.001Z</time></trkpt><trkpt lat="49.01767500921002" lon="1.8012122957357775"><ele>187.79999999999998</ele><time>2026-03-22T13:29:12.001Z</time></trkpt><trkpt lat="49.01777247521938" lon="1.8011431585575237"><ele>187.39999999999998</ele><time>2026-03-22T13:29:13.001Z</time></trkpt><trkpt lat="49.01786099453929" lon="1.8010758823957758"><ele>187.0</ele><time>2026-03-22T13:29:14.001Z</time></trkpt><trkpt lat="49.01794020860801" lon="1.8009967949210441"><ele>186.6</ele><time>2026-03-22T13:29:15.001Z</time></trkpt><trkpt lat="49.01800159444679" lon="1.800907227219496"><ele>186.2</ele><time>2026-03-22T13:29:16.001Z</time></trkpt><trkpt lat="49.018067745022634" lon="1.8008075321616597"><ele>185.8</ele><time>2026-03-22T13:29:17Z</time></trkpt><trkpt lat="49.01813948691358" lon="1.8007016294755074"><ele>185.4</ele><time>2026-03-22T13:29:18Z</time></trkpt><trkpt lat="49.01821202656" lon="1.8006214805639147"><ele>185.0</ele><time>2026-03-22T13:29:19Z</time></trkpt><trkpt lat="49.018306832956945" lon="1.8005710081144863"><ele>184.33333333333331</ele><time>2026-03-22T13:29:20Z</time></trkpt><trkpt lat="49.018407805214196" lon="1.800491278521475"><ele>183.66666666666666</ele><time>2026-03-22T13:29:21Z</time></trkpt><trkpt lat="49.018485191915545" lon="1.8004330728039457"><ele>183.0</ele><time>2026-03-22T13:29:22Z</time></trkpt><trkpt lat="49.01854519696525" lon="1.8003791310064223"><ele>182.33333333333334</ele><time>2026-03-22T13:29:23Z</time></trkpt><trkpt lat="49.01862878280862" lon="1.800311774042169"><ele>181.66666666666669</ele><time>2026-03-22T13:29:25Z</time></trkpt><trkpt lat="49.01868644043946" lon="1.8002359159490233"><ele>181.0</ele><time>2026-03-22T13:29:32Z</time></trkpt><trkpt lat="49.018765190033484" lon="1.8001617576193476"><ele>180.5</ele><time>2026-03-22T13:29:34Z</time></trkpt><trkpt lat="49.018900913621685" lon="1.8001067734603435"><ele>180.0</ele><time>2026-03-22T13:29:35Z</time></trkpt><trkpt lat="49.01900305804204" lon="1.8000116113524212"><ele>179.5</ele><time>2026-03-22T13:29:36Z</time></trkpt><trkpt lat="49.019133244282735" lon="1.799884135587867"><ele>179.0</ele><time>2026-03-22T13:29:37Z</time></trkpt><trkpt lat="49.01927589089344" lon="1.799762006861093"><ele>178.33333333333331</ele><time>2026-03-22T13:29:38Z</time></trkpt><trkpt lat="49.0194053482759" lon="1.7996553719751278"><ele>177.66666666666666</ele><time>2026-03-22T13:29:39Z</time></trkpt><trkpt lat="49.01953167413771" lon="1.7995388743090028"><ele>177.0</ele><time>2026-03-22T13:29:40Z</time></trkpt><trkpt lat="49.019670366064716" lon="1.7994160447144856"><ele>177.5</ele><time>2026-03-22T13:29:41Z</time></trkpt><trkpt lat="49.01981417036103" lon="1.799271661708593"><ele>178.0</ele><time>2026-03-22T13:29:42Z</time></trkpt><trkpt lat="49.01992607149176" lon="1.799167967744754"><ele>178.5</ele><time>2026-03-22T13:29:43Z</time></trkpt><trkpt lat="49.0200386514376" lon="1.799077333350585"><ele>179.0</ele><time>2026-03-22T13:29:44Z</time></trkpt><trkpt lat="49.02015408714463" lon="1.7989787380355726"><ele>177.5</ele><time>2026-03-22T13:29:45Z</time></trkpt><trkpt lat="49.02027193741743" lon="1.7988763062782465"><ele>176.0</ele><time>2026-03-22T13:29:46Z</time></trkpt><trkpt lat="49.02038248863124" lon="1.7987939639980084"><ele>174.5</ele><time>2026-03-22T13:29:47Z</time></trkpt><trkpt lat="49.02050307109623" lon="1.7987104587142926"><ele>173.0</ele><time>2026-03-22T13:29:48Z</time></trkpt><trkpt lat="49.02062440916591" lon="1.7986169840912387"><ele>173.0</ele><time>2026-03-22T13:29:49Z</time></trkpt><trkpt lat="49.02074249824878" lon="1.7985160070056792"><ele>173.0</ele><time>2026-03-22T13:29:50Z</time></trkpt><trkpt lat="49.020848296260816" lon="1.7984258095288448"><ele>173.0</ele><time>2026-03-22T13:29:51Z</time></trkpt><trkpt lat="49.02092959904063" lon="1.7983631004418157"><ele>173.0</ele><time>2026-03-22T13:29:52Z</time></trkpt><trkpt lat="49.020991053871306" lon="1.7982797722662498"><ele>173.0</ele><time>2026-03-22T13:29:54Z</time></trkpt><trkpt lat="49.02112182741142" lon="1.798169510614232"><ele>172.0</ele><time>2026-03-22T13:30:04Z</time></trkpt><trkpt lat="49.021185030234996" lon="1.7980755119810308"><ele>171.0</ele><time>2026-03-22T13:30:05Z</time></trkpt><trkpt lat="49.02127465729882" lon="1.7979913360574784"><ele>170.0</ele><time>2026-03-22T13:30:06Z</time></trkpt><trkpt lat="49.02139672844643" lon="1.7978728657204248"><ele>169.0</ele><time>2026-03-22T13:30:07Z</time></trkpt><trkpt lat="49.021543428136894" lon="1.7977551803737024"><ele>168.33333333333334</ele><time>2026-03-22T13:30:08Z</time></trkpt><trkpt lat="49.02169422725533" lon="1.7976069022658059"><ele>167.66666666666666</ele><time>2026-03-22T13:30:09Z</time></trkpt><trkpt lat="49.02185960961949" lon="1.7974614034502854"><ele>167.0</ele><time>2026-03-22T13:30:10Z</time></trkpt><trkpt lat="49.02203235617669" lon="1.7973105015550126"><ele>167.0</ele><time>2026-03-22T13:30:11Z</time></trkpt><trkpt lat="49.02220398488245" lon="1.7971492240311648"><ele>167.0</ele><time>2026-03-22T13:30:12Z</time></trkpt><trkpt lat="49.022378268259956" lon="1.796990727917659"><ele>167.0</ele><time>2026-03-22T13:30:13Z</time></trkpt><trkpt lat="49.02252952317492" lon="1.7968463394395193"><ele>168.33333333333331</ele><time>2026-03-22T13:30:14Z</time></trkpt><trkpt lat="49.02268119716561" lon="1.796718224795116"><ele>169.66666666666666</ele><time>2026-03-22T13:30:15Z</time></trkpt><trkpt lat="49.022832008459545" lon="1.7965825251992766"><ele>171.0</ele><time>2026-03-22T13:30:16Z</time></trkpt><trkpt lat="49.022956578783266" lon="1.7964343085976062"><ele>171.0</ele><time>2026-03-22T13:30:17Z</time></trkpt><trkpt lat="49.02306453129017" lon="1.7962421667717858"><ele>171.0</ele><time>2026-03-22T13:30:18Z</time></trkpt><trkpt lat="49.02317908216367" lon="1.7960420128836734"><ele>171.0</ele><time>2026-03-22T13:30:19Z</time></trkpt><trkpt lat="49.02327173025736" lon="1.7958546946957499"><ele>172.75</ele><time>2026-03-22T13:30:20Z</time></trkpt><trkpt lat="49.023349161015695" lon="1.7956773292622707"><ele>174.5</ele><time>2026-03-22T13:30:21Z</time></trkpt><trkpt lat="49.02340382450018" lon="1.7955413491280843"><ele>176.25</ele><time>2026-03-22T13:30:22Z</time></trkpt><trkpt lat="49.023487674291104" lon="1.7953763314677507"><ele>178.0</ele><time>2026-03-22T13:30:23Z</time></trkpt><trkpt lat="49.02352639251816" lon="1.795183824825986"><ele>179.33333333333334</ele><time>2026-03-22T13:30:24Z</time></trkpt><trkpt lat="49.02354212519709" lon="1.7948709028008787"><ele>180.66666666666666</ele><time>2026-03-22T13:30:25Z</time></trkpt><trkpt lat="49.02352735800596" lon="1.7946326541581628"><ele>182.0</ele><time>2026-03-22T13:30:26Z</time></trkpt><trkpt lat="49.023534325258446" lon="1.7944592711985228"><ele>183.0</ele><time>2026-03-22T13:30:27Z</time></trkpt><trkpt lat="49.0235643591324" lon="1.7942688409719154"><ele>184.0</ele><time>2026-03-22T13:30:28Z</time></trkpt><trkpt lat="49.02365684265695" lon="1.7940264376686774"><ele>185.0</ele><time>2026-03-22T13:30:29Z</time></trkpt><trkpt lat="49.02366376302296" lon="1.7938355693537245"><ele>186.0</ele><time>2026-03-22T13:30:30Z</time></trkpt><trkpt lat="49.0236703418676" lon="1.7936541199614109"><ele>186.25</ele><time>2026-03-22T13:30:31Z</time></trkpt><trkpt lat="49.023675929801534" lon="1.7935000006476336"><ele>186.5</ele><time>2026-03-22T13:30:32Z</time></trkpt><trkpt lat="49.02342429077667" lon="1.7933562735896642"><ele>186.75</ele><time>2026-03-22T13:30:33Z</time></trkpt><trkpt lat="49.023431622054495" lon="1.7932426035275033"><ele>187.0</ele><time>2026-03-22T13:30:34Z</time></trkpt><trkpt lat="49.023450812928814" lon="1.7931049660419025"><ele>187.0</ele><time>2026-03-22T13:30:35Z</time></trkpt><trkpt lat="49.02345597651926" lon="1.7928985062857106"><ele>187.0</ele><time>2026-03-22T13:30:36Z</time></trkpt><trkpt lat="49.023454463234394" lon="1.7926458300246908"><ele>187.0</ele><time>2026-03-22T13:30:37Z</time></trkpt><trkpt lat="49.023463175097035" lon="1.7923803583477345"><ele>187.33333333333334</ele><time>2026-03-22T13:30:38Z</time></trkpt><trkpt lat="49.02348009962525" lon="1.7920818200227595"><ele>187.66666666666666</ele><time>2026-03-22T13:30:39Z</time></trkpt><trkpt lat="49.02349060281447" lon="1.791750934794308"><ele>188.0</ele><time>2026-03-22T13:30:40Z</time></trkpt><trkpt lat="49.02350744070343" lon="1.7913999586225395"><ele>188.0</ele><time>2026-03-22T13:30:41Z</time></trkpt><trkpt lat="49.023521101974865" lon="1.7910588225961406"><ele>188.0</ele><time>2026-03-22T13:30:42Z</time></trkpt><trkpt lat="49.02353578003306" lon="1.7907058157941338"><ele>188.0</ele><time>2026-03-22T13:30:43Z</time></trkpt><trkpt lat="49.02356011093958" lon="1.7903330469266687"><ele>188.0</ele><time>2026-03-22T13:30:44Z</time></trkpt><trkpt lat="49.023585887897816" lon="1.7899936769492393"><ele>188.33333333333331</ele><time>2026-03-22T13:30:45Z</time></trkpt><trkpt lat="49.02359022471915" lon="1.7896793407891738"><ele>188.66666666666666</ele><time>2026-03-22T13:30:46Z</time></trkpt><trkpt lat="49.02358393200269" lon="1.7893325416670924"><ele>189.0</ele><time>2026-03-22T13:30:47Z</time></trkpt><trkpt lat="49.02358807037262" lon="1.7889694714734874"><ele>190.0</ele><time>2026-03-22T13:30:48Z</time></trkpt><trkpt lat="49.02357886146789" lon="1.7886037957094025"><ele>191.0</ele><time>2026-03-22T13:30:49Z</time></trkpt><trkpt lat="49.02358981578022" lon="1.7882363403063049"><ele>191.0</ele><time>2026-03-22T13:30:50Z</time></trkpt><trkpt lat="49.023601492628224" lon="1.7878639770825588"><ele>191.0</ele><time>2026-03-22T13:30:51Z</time></trkpt><trkpt lat="49.023622285531005" lon="1.7875416847687569"><ele>191.0</ele><time>2026-03-22T13:30:52Z</time></trkpt><trkpt lat="49.02363866216385" lon="1.787247478327954"><ele>191.0</ele><time>2026-03-22T13:30:53Z</time></trkpt><trkpt lat="49.02365472312252" lon="1.786974675401801"><ele>191.0</ele><time>2026-03-22T13:30:54Z</time></trkpt><trkpt lat="49.02366613345608" lon="1.786716638839672"><ele>191.0</ele><time>2026-03-22T13:30:55Z</time></trkpt><trkpt lat="49.02368627293033" lon="1.7864852858941067"><ele>191.0</ele><time>2026-03-22T13:30:56Z</time></trkpt><trkpt lat="49.02373836790512" lon="1.7862579713309166"><ele>191.0</ele><time>2026-03-22T13:30:57Z</time></trkpt><trkpt lat="49.02380224561548" lon="1.7860084579341144"><ele>191.0</ele><time>2026-03-22T13:30:58Z</time></trkpt><trkpt lat="49.023855748158596" lon="1.7857924504098277"><ele>191.0</ele><time>2026-03-22T13:30:59Z</time></trkpt><trkpt lat="49.02388046801198" lon="1.785616599792488"><ele>191.0</ele><time>2026-03-22T13:31:00.001Z</time></trkpt><trkpt lat="49.02390642731205" lon="1.7854452812716735"><ele>191.0</ele><time>2026-03-22T13:31:01.001Z</time></trkpt><trkpt lat="49.023927138383165" lon="1.7852988701441221"><ele>191.0</ele><time>2026-03-22T13:31:02.001Z</time></trkpt><trkpt lat="49.02394956645119" lon="1.785167814632983"><ele>186.0</ele><time>2026-03-22T13:31:03.001Z</time></trkpt><trkpt lat="49.02396922212323" lon="1.7850512500308888"><ele>186.0</ele><time>2026-03-22T13:31:04.001Z</time></trkpt><trkpt lat="49.02399295634511" lon="1.7849593353201614"><ele>186.0</ele><time>2026-03-22T13:31:05.001Z</time></trkpt><trkpt lat="49.024026428074855" lon="1.784851931244532"><ele>186.0</ele><time>2026-03-22T13:31:07.001Z</time></trkpt></trkseg></trk></gpx>